<?xml version="1.0" encoding="UTF-8" standalone="no" ?>
<gpx xmlns="http://www.topografix.com/GPX/1/1" xmlns:xsi="http://www.w3.org/2001/XMLSchema-instance" xsi:schemaLocation="http://www.topografix.com/GPX/1/1 http://www.topografix.com/GPX/1/1/gpx.xsd" version="1.1" creator="VisuGPX - https://www.visugpx.com">
  <metadata>
    <name>64 - RAQUETTES - Pic Bersaut - Depuis le plateau du Benou</name>
    <desc><![CDATA[Soleil, bonne neige, beaucoup de randonneurs]]></desc>
  </metadata>
  <wpt lat="43.07797" lon="-0.4724">
    <ele>1373</ele>
    <name><![CDATA[Bersaut 1368m]]></name>
    <desc><![CDATA[16-FEV-13 22:56:21]]></desc>
  </wpt>
  <wpt lat="43.06224" lon="-0.45726">
    <ele>829.977783</ele>
    <name><![CDATA[Chapelle des H]]></name>
    <desc><![CDATA[Chapelle des Houndas 830m]]></desc>
  </wpt>
  <wpt lat="43.06739" lon="-0.44705">
    <ele>966.964355</ele>
    <name><![CDATA[Cromlechs de L]]></name>
    <desc><![CDATA[Cromlechs de Lous Couraus 967m]]></desc>
  </wpt>
  <wpt lat="43.06343" lon="-0.45772">
    <ele>839.110107</ele>
    <name><![CDATA[Départ]]></name>
    <desc><![CDATA[Départ-D294]]></desc>
  </wpt>
  <wpt lat="43.07718" lon="-0.46125">
    <ele>1340.914551</ele>
    <name><![CDATA[Pic Hourcat 13]]></name>
    <desc><![CDATA[Pic Hourcat 1341m]]></desc>
  </wpt>
  <trk>
    <name><![CDATA[ACTIVE LOG 001]]></name>
    <trkseg>
      <trkpt lat="43.06332" lon="-0.45766">
        <ele>852.345947</ele>
        <time>2013-02-17T07:50:32Z</time>
      </trkpt>
      <trkpt lat="43.06334" lon="-0.45768">
        <ele>848.981445</ele>
        <time>2013-02-17T07:50:51Z</time>
      </trkpt>
      <trkpt lat="43.06335" lon="-0.45766">
        <ele>846.097656</ele>
        <time>2013-02-17T07:51:10Z</time>
      </trkpt>
      <trkpt lat="43.06339" lon="-0.45768">
        <ele>844.175049</ele>
        <time>2013-02-17T07:51:27Z</time>
      </trkpt>
      <trkpt lat="43.06345" lon="-0.45764">
        <ele>843.213379</ele>
        <time>2013-02-17T07:51:35Z</time>
      </trkpt>
      <trkpt lat="43.06358" lon="-0.45752">
        <ele>843.694092</ele>
        <time>2013-02-17T07:51:55Z</time>
      </trkpt>
      <trkpt lat="43.06368" lon="-0.45743">
        <ele>845.13623</ele>
        <time>2013-02-17T07:52:12Z</time>
      </trkpt>
      <trkpt lat="43.06377" lon="-0.45739">
        <ele>847.539551</ele>
        <time>2013-02-17T07:52:30Z</time>
      </trkpt>
      <trkpt lat="43.06378" lon="-0.45739">
        <ele>847.539551</ele>
        <time>2013-02-17T07:52:31Z</time>
      </trkpt>
      <trkpt lat="43.06388" lon="-0.45728">
        <ele>847.539551</ele>
        <time>2013-02-17T07:52:50Z</time>
      </trkpt>
      <trkpt lat="43.06397" lon="-0.45713">
        <ele>848.981445</ele>
        <time>2013-02-17T07:53:07Z</time>
      </trkpt>
      <trkpt lat="43.06409" lon="-0.457">
        <ele>848.981445</ele>
        <time>2013-02-17T07:53:24Z</time>
      </trkpt>
      <trkpt lat="43.06417" lon="-0.4569">
        <ele>849.942871</ele>
        <time>2013-02-17T07:53:39Z</time>
      </trkpt>
      <trkpt lat="43.0643" lon="-0.45672">
        <ele>850.423584</ele>
        <time>2013-02-17T07:53:59Z</time>
      </trkpt>
      <trkpt lat="43.06443" lon="-0.45649">
        <ele>851.865479</ele>
        <time>2013-02-17T07:54:20Z</time>
      </trkpt>
      <trkpt lat="43.06457" lon="-0.45617">
        <ele>853.788086</ele>
        <time>2013-02-17T07:54:44Z</time>
      </trkpt>
      <trkpt lat="43.06465" lon="-0.45598">
        <ele>853.788086</ele>
        <time>2013-02-17T07:55:01Z</time>
      </trkpt>
      <trkpt lat="43.06484" lon="-0.45559">
        <ele>855.22998</ele>
        <time>2013-02-17T07:55:29Z</time>
      </trkpt>
      <trkpt lat="43.06501" lon="-0.45525">
        <ele>857.152588</ele>
        <time>2013-02-17T07:55:55Z</time>
      </trkpt>
      <trkpt lat="43.06513" lon="-0.45497">
        <ele>858.114014</ele>
        <time>2013-02-17T07:56:16Z</time>
      </trkpt>
      <trkpt lat="43.06524" lon="-0.45465">
        <ele>857.633301</ele>
        <time>2013-02-17T07:56:40Z</time>
      </trkpt>
      <trkpt lat="43.0653" lon="-0.45454">
        <ele>856.671875</ele>
        <time>2013-02-17T07:56:49Z</time>
      </trkpt>
      <trkpt lat="43.06539" lon="-0.45421">
        <ele>857.152588</ele>
        <time>2013-02-17T07:57:13Z</time>
      </trkpt>
      <trkpt lat="43.06548" lon="-0.45389">
        <ele>857.152588</ele>
        <time>2013-02-17T07:57:36Z</time>
      </trkpt>
      <trkpt lat="43.06554" lon="-0.45359">
        <ele>859.555908</ele>
        <time>2013-02-17T07:57:58Z</time>
      </trkpt>
      <trkpt lat="43.06562" lon="-0.45318">
        <ele>860.517334</ele>
        <time>2013-02-17T07:58:26Z</time>
      </trkpt>
      <trkpt lat="43.06568" lon="-0.45301">
        <ele>861.47876</ele>
        <time>2013-02-17T07:58:50Z</time>
      </trkpt>
      <trkpt lat="43.06571" lon="-0.45293">
        <ele>862.920654</ele>
        <time>2013-02-17T07:59:14Z</time>
      </trkpt>
      <trkpt lat="43.06575" lon="-0.45272">
        <ele>863.881836</ele>
        <time>2013-02-17T07:59:34Z</time>
      </trkpt>
      <trkpt lat="43.06582" lon="-0.4525">
        <ele>865.804688</ele>
        <time>2013-02-17T07:59:55Z</time>
      </trkpt>
      <trkpt lat="43.06585" lon="-0.45244">
        <ele>866.765869</ele>
        <time>2013-02-17T08:00:12Z</time>
      </trkpt>
      <trkpt lat="43.06591" lon="-0.45228">
        <ele>868.207764</ele>
        <time>2013-02-17T08:00:39Z</time>
      </trkpt>
      <trkpt lat="43.06602" lon="-0.45209">
        <ele>870.130371</ele>
        <time>2013-02-17T08:01:01Z</time>
      </trkpt>
      <trkpt lat="43.06619" lon="-0.452">
        <ele>871.091797</ele>
        <time>2013-02-17T08:01:23Z</time>
      </trkpt>
      <trkpt lat="43.0663" lon="-0.45192">
        <ele>871.572266</ele>
        <time>2013-02-17T08:01:41Z</time>
      </trkpt>
      <trkpt lat="43.06635" lon="-0.45192">
        <ele>873.014404</ele>
        <time>2013-02-17T08:01:57Z</time>
      </trkpt>
      <trkpt lat="43.06644" lon="-0.45189">
        <ele>873.495117</ele>
        <time>2013-02-17T08:02:14Z</time>
      </trkpt>
      <trkpt lat="43.06649" lon="-0.45189">
        <ele>872.533691</ele>
        <time>2013-02-17T08:02:49Z</time>
      </trkpt>
      <trkpt lat="43.06647" lon="-0.4518">
        <ele>872.533691</ele>
        <time>2013-02-17T08:03:16Z</time>
      </trkpt>
      <trkpt lat="43.06652" lon="-0.45187">
        <ele>874.456299</ele>
        <time>2013-02-17T08:03:40Z</time>
      </trkpt>
      <trkpt lat="43.06673" lon="-0.4518">
        <ele>874.456299</ele>
        <time>2013-02-17T08:04:01Z</time>
      </trkpt>
      <trkpt lat="43.06688" lon="-0.45155">
        <ele>875.898193</ele>
        <time>2013-02-17T08:04:24Z</time>
      </trkpt>
      <trkpt lat="43.06688" lon="-0.45152">
        <ele>876.37915</ele>
        <time>2013-02-17T08:04:26Z</time>
      </trkpt>
      <trkpt lat="43.06677" lon="-0.45132">
        <ele>880.224365</ele>
        <time>2013-02-17T08:04:44Z</time>
      </trkpt>
      <trkpt lat="43.06663" lon="-0.45116">
        <ele>884.06958</ele>
        <time>2013-02-17T08:05:04Z</time>
      </trkpt>
      <trkpt lat="43.06648" lon="-0.45096">
        <ele>886.4729</ele>
        <time>2013-02-17T08:05:24Z</time>
      </trkpt>
      <trkpt lat="43.06643" lon="-0.45077">
        <ele>889.356689</ele>
        <time>2013-02-17T08:05:39Z</time>
      </trkpt>
      <trkpt lat="43.0664" lon="-0.45051">
        <ele>891.76001</ele>
        <time>2013-02-17T08:05:59Z</time>
      </trkpt>
      <trkpt lat="43.06641" lon="-0.45024">
        <ele>894.644043</ele>
        <time>2013-02-17T08:06:20Z</time>
      </trkpt>
      <trkpt lat="43.06642" lon="-0.44996">
        <ele>897.528076</ele>
        <time>2013-02-17T08:06:41Z</time>
      </trkpt>
      <trkpt lat="43.06642" lon="-0.44968">
        <ele>899.931396</ele>
        <time>2013-02-17T08:07:03Z</time>
      </trkpt>
      <trkpt lat="43.06639" lon="-0.44943">
        <ele>901.854004</ele>
        <time>2013-02-17T08:07:22Z</time>
      </trkpt>
      <trkpt lat="43.06639" lon="-0.44941">
        <ele>900.412109</ele>
        <time>2013-02-17T08:07:24Z</time>
      </trkpt>
      <trkpt lat="43.06638" lon="-0.44936">
        <ele>903.776611</ele>
        <time>2013-02-17T08:07:28Z</time>
      </trkpt>
      <trkpt lat="43.06638" lon="-0.44935">
        <ele>902.815186</ele>
        <time>2013-02-17T08:07:29Z</time>
      </trkpt>
      <trkpt lat="43.06638" lon="-0.44933">
        <ele>901.854004</ele>
        <time>2013-02-17T08:07:31Z</time>
      </trkpt>
      <trkpt lat="43.06636" lon="-0.44919">
        <ele>900.892578</ele>
        <time>2013-02-17T08:07:49Z</time>
      </trkpt>
      <trkpt lat="43.06635" lon="-0.44913">
        <ele>901.373291</ele>
        <time>2013-02-17T08:08:13Z</time>
      </trkpt>
      <trkpt lat="43.0663" lon="-0.44886">
        <ele>900.892578</ele>
        <time>2013-02-17T08:08:34Z</time>
      </trkpt>
      <trkpt lat="43.06626" lon="-0.44854">
        <ele>903.295898</ele>
        <time>2013-02-17T08:08:56Z</time>
      </trkpt>
      <trkpt lat="43.0662" lon="-0.44817">
        <ele>906.6604</ele>
        <time>2013-02-17T08:09:23Z</time>
      </trkpt>
      <trkpt lat="43.06616" lon="-0.44785">
        <ele>907.621826</ele>
        <time>2013-02-17T08:09:46Z</time>
      </trkpt>
      <trkpt lat="43.06616" lon="-0.44753">
        <ele>908.583252</ele>
        <time>2013-02-17T08:10:08Z</time>
      </trkpt>
      <trkpt lat="43.06617" lon="-0.44718">
        <ele>909.063965</ele>
        <time>2013-02-17T08:10:32Z</time>
      </trkpt>
      <trkpt lat="43.06621" lon="-0.44691">
        <ele>910.986572</ele>
        <time>2013-02-17T08:10:53Z</time>
      </trkpt>
      <trkpt lat="43.06624" lon="-0.44678">
        <ele>911.467285</ele>
        <time>2013-02-17T08:11:12Z</time>
      </trkpt>
      <trkpt lat="43.06628" lon="-0.44667">
        <ele>911.947998</ele>
        <time>2013-02-17T08:11:25Z</time>
      </trkpt>
      <trkpt lat="43.06629" lon="-0.44641">
        <ele>912.90918</ele>
        <time>2013-02-17T08:11:45Z</time>
      </trkpt>
      <trkpt lat="43.06632" lon="-0.4463">
        <ele>914.351074</ele>
        <time>2013-02-17T08:12:01Z</time>
      </trkpt>
      <trkpt lat="43.06634" lon="-0.44622">
        <ele>915.3125</ele>
        <time>2013-02-17T08:12:09Z</time>
      </trkpt>
      <trkpt lat="43.06641" lon="-0.4461">
        <ele>917.235107</ele>
        <time>2013-02-17T08:12:25Z</time>
      </trkpt>
      <trkpt lat="43.0665" lon="-0.4459">
        <ele>919.157715</ele>
        <time>2013-02-17T08:12:46Z</time>
      </trkpt>
      <trkpt lat="43.06653" lon="-0.44583">
        <ele>919.638428</ele>
        <time>2013-02-17T08:13:09Z</time>
      </trkpt>
      <trkpt lat="43.06658" lon="-0.44568">
        <ele>922.041504</ele>
        <time>2013-02-17T08:13:24Z</time>
      </trkpt>
      <trkpt lat="43.06667" lon="-0.44543">
        <ele>924.445068</ele>
        <time>2013-02-17T08:13:47Z</time>
      </trkpt>
      <trkpt lat="43.06679" lon="-0.44517">
        <ele>926.848389</ele>
        <time>2013-02-17T08:14:10Z</time>
      </trkpt>
      <trkpt lat="43.06686" lon="-0.44486">
        <ele>928.290283</ele>
        <time>2013-02-17T08:14:33Z</time>
      </trkpt>
      <trkpt lat="43.06692" lon="-0.44456">
        <ele>928.770996</ele>
        <time>2013-02-17T08:14:58Z</time>
      </trkpt>
      <trkpt lat="43.06697" lon="-0.44436">
        <ele>932.135498</ele>
        <time>2013-02-17T08:15:15Z</time>
      </trkpt>
      <trkpt lat="43.06706" lon="-0.44415">
        <ele>933.09668</ele>
        <time>2013-02-17T08:15:34Z</time>
      </trkpt>
      <trkpt lat="43.06716" lon="-0.44399">
        <ele>935.019531</ele>
        <time>2013-02-17T08:15:50Z</time>
      </trkpt>
      <trkpt lat="43.06729" lon="-0.44382">
        <ele>936.941895</ele>
        <time>2013-02-17T08:16:09Z</time>
      </trkpt>
      <trkpt lat="43.0674" lon="-0.44367">
        <ele>938.864746</ele>
        <time>2013-02-17T08:16:26Z</time>
      </trkpt>
      <trkpt lat="43.06747" lon="-0.4436">
        <ele>939.345215</ele>
        <time>2013-02-17T08:16:47Z</time>
      </trkpt>
      <trkpt lat="43.06754" lon="-0.44351">
        <ele>940.306885</ele>
        <time>2013-02-17T08:17:11Z</time>
      </trkpt>
      <trkpt lat="43.0677" lon="-0.44332">
        <ele>943.190674</ele>
        <time>2013-02-17T08:17:33Z</time>
      </trkpt>
      <trkpt lat="43.06787" lon="-0.4432">
        <ele>945.113281</ele>
        <time>2013-02-17T08:17:53Z</time>
      </trkpt>
      <trkpt lat="43.06793" lon="-0.44317">
        <ele>945.113281</ele>
        <time>2013-02-17T08:18:08Z</time>
      </trkpt>
      <trkpt lat="43.06795" lon="-0.44316">
        <ele>944.1521</ele>
        <time>2013-02-17T08:18:15Z</time>
      </trkpt>
      <trkpt lat="43.06817" lon="-0.44316">
        <ele>946.55542</ele>
        <time>2013-02-17T08:18:36Z</time>
      </trkpt>
      <trkpt lat="43.0683" lon="-0.44335">
        <ele>947.035889</ele>
        <time>2013-02-17T08:18:54Z</time>
      </trkpt>
      <trkpt lat="43.06843" lon="-0.44355">
        <ele>948.477783</ele>
        <time>2013-02-17T08:19:13Z</time>
      </trkpt>
      <trkpt lat="43.06857" lon="-0.44377">
        <ele>946.55542</ele>
        <time>2013-02-17T08:19:33Z</time>
      </trkpt>
      <trkpt lat="43.0686" lon="-0.44385">
        <ele>945.593994</ele>
        <time>2013-02-17T08:19:55Z</time>
      </trkpt>
      <trkpt lat="43.0686" lon="-0.44386">
        <ele>945.113281</ele>
        <time>2013-02-17T08:19:56Z</time>
      </trkpt>
      <trkpt lat="43.0686" lon="-0.44392">
        <ele>946.074707</ele>
        <time>2013-02-17T08:20:00Z</time>
      </trkpt>
      <trkpt lat="43.06851" lon="-0.4442">
        <ele>947.997314</ele>
        <time>2013-02-17T08:20:23Z</time>
      </trkpt>
      <trkpt lat="43.0684" lon="-0.4444">
        <ele>951.361816</ele>
        <time>2013-02-17T08:20:42Z</time>
      </trkpt>
      <trkpt lat="43.06829" lon="-0.44456">
        <ele>953.765137</ele>
        <time>2013-02-17T08:21:00Z</time>
      </trkpt>
      <trkpt lat="43.0682" lon="-0.44478">
        <ele>956.168457</ele>
        <time>2013-02-17T08:21:22Z</time>
      </trkpt>
      <trkpt lat="43.06818" lon="-0.44482">
        <ele>957.610596</ele>
        <time>2013-02-17T08:21:25Z</time>
      </trkpt>
      <trkpt lat="43.06812" lon="-0.44494">
        <ele>959.533203</ele>
        <time>2013-02-17T08:21:39Z</time>
      </trkpt>
      <trkpt lat="43.06809" lon="-0.4451">
        <ele>962.897705</ele>
        <time>2013-02-17T08:21:54Z</time>
      </trkpt>
      <trkpt lat="43.06802" lon="-0.44523">
        <ele>964.820312</ele>
        <time>2013-02-17T08:22:12Z</time>
      </trkpt>
      <trkpt lat="43.06797" lon="-0.44535">
        <ele>966.74292</ele>
        <time>2013-02-17T08:22:30Z</time>
      </trkpt>
      <trkpt lat="43.06797" lon="-0.44535">
        <ele>966.74292</ele>
        <time>2013-02-17T08:22:46Z</time>
      </trkpt>
      <trkpt lat="43.06799" lon="-0.44535">
        <ele>966.74292</ele>
        <time>2013-02-17T08:23:12Z</time>
      </trkpt>
      <trkpt lat="43.06798" lon="-0.44537">
        <ele>967.704102</ele>
        <time>2013-02-17T08:23:31Z</time>
      </trkpt>
      <trkpt lat="43.06797" lon="-0.44537">
        <ele>966.74292</ele>
        <time>2013-02-17T08:23:52Z</time>
      </trkpt>
      <trkpt lat="43.06797" lon="-0.44535">
        <ele>967.704102</ele>
        <time>2013-02-17T08:24:22Z</time>
      </trkpt>
      <trkpt lat="43.06797" lon="-0.44534">
        <ele>967.704102</ele>
        <time>2013-02-17T08:24:42Z</time>
      </trkpt>
      <trkpt lat="43.06797" lon="-0.44533">
        <ele>966.74292</ele>
        <time>2013-02-17T08:25:07Z</time>
      </trkpt>
      <trkpt lat="43.06797" lon="-0.44534">
        <ele>965.781738</ele>
        <time>2013-02-17T08:25:09Z</time>
      </trkpt>
      <trkpt lat="43.06796" lon="-0.44537">
        <ele>966.262207</ele>
        <time>2013-02-17T08:25:47Z</time>
      </trkpt>
      <trkpt lat="43.06795" lon="-0.44536">
        <ele>966.74292</ele>
        <time>2013-02-17T08:26:06Z</time>
      </trkpt>
      <trkpt lat="43.06796" lon="-0.44539">
        <ele>966.74292</ele>
        <time>2013-02-17T08:26:36Z</time>
      </trkpt>
      <trkpt lat="43.06799" lon="-0.44539">
        <ele>968.184814</ele>
        <time>2013-02-17T08:27:02Z</time>
      </trkpt>
      <trkpt lat="43.06797" lon="-0.44536">
        <ele>967.704102</ele>
        <time>2013-02-17T08:28:03Z</time>
      </trkpt>
      <trkpt lat="43.068" lon="-0.4453">
        <ele>966.74292</ele>
        <time>2013-02-17T08:28:23Z</time>
      </trkpt>
      <trkpt lat="43.06808" lon="-0.44529">
        <ele>965.781738</ele>
        <time>2013-02-17T08:28:36Z</time>
      </trkpt>
      <trkpt lat="43.06827" lon="-0.44528">
        <ele>965.781738</ele>
        <time>2013-02-17T08:28:56Z</time>
      </trkpt>
      <trkpt lat="43.06838" lon="-0.44528">
        <ele>966.262207</ele>
        <time>2013-02-17T08:29:10Z</time>
      </trkpt>
      <trkpt lat="43.0686" lon="-0.44538">
        <ele>967.704102</ele>
        <time>2013-02-17T08:29:32Z</time>
      </trkpt>
      <trkpt lat="43.06868" lon="-0.44551">
        <ele>970.107422</ele>
        <time>2013-02-17T08:29:49Z</time>
      </trkpt>
      <trkpt lat="43.06877" lon="-0.44567">
        <ele>973.472412</ele>
        <time>2013-02-17T08:30:07Z</time>
      </trkpt>
      <trkpt lat="43.06887" lon="-0.44577">
        <ele>974.433594</ele>
        <time>2013-02-17T08:30:27Z</time>
      </trkpt>
      <trkpt lat="43.06892" lon="-0.44581">
        <ele>977.798096</ele>
        <time>2013-02-17T08:30:37Z</time>
      </trkpt>
      <trkpt lat="43.06899" lon="-0.44589">
        <ele>980.682129</ele>
        <time>2013-02-17T08:30:56Z</time>
      </trkpt>
      <trkpt lat="43.06907" lon="-0.44602">
        <ele>983.085205</ele>
        <time>2013-02-17T08:31:16Z</time>
      </trkpt>
      <trkpt lat="43.06909" lon="-0.44604">
        <ele>984.527344</ele>
        <time>2013-02-17T08:31:22Z</time>
      </trkpt>
      <trkpt lat="43.06913" lon="-0.44611">
        <ele>986.93042</ele>
        <time>2013-02-17T08:31:33Z</time>
      </trkpt>
      <trkpt lat="43.06922" lon="-0.44625">
        <ele>989.814697</ele>
        <time>2013-02-17T08:31:51Z</time>
      </trkpt>
      <trkpt lat="43.06933" lon="-0.44638">
        <ele>993.179199</ele>
        <time>2013-02-17T08:32:13Z</time>
      </trkpt>
      <trkpt lat="43.06939" lon="-0.44649">
        <ele>996.543945</ele>
        <time>2013-02-17T08:32:33Z</time>
      </trkpt>
      <trkpt lat="43.06943" lon="-0.44659">
        <ele>999.908447</ele>
        <time>2013-02-17T08:32:50Z</time>
      </trkpt>
      <trkpt lat="43.06947" lon="-0.4467">
        <ele>1002.792236</ele>
        <time>2013-02-17T08:33:07Z</time>
      </trkpt>
      <trkpt lat="43.06957" lon="-0.44677">
        <ele>1005.195801</ele>
        <time>2013-02-17T08:33:26Z</time>
      </trkpt>
      <trkpt lat="43.06963" lon="-0.44684">
        <ele>1006.637695</ele>
        <time>2013-02-17T08:33:43Z</time>
      </trkpt>
      <trkpt lat="43.06969" lon="-0.4469">
        <ele>1009.521729</ele>
        <time>2013-02-17T08:33:57Z</time>
      </trkpt>
      <trkpt lat="43.0697" lon="-0.4469">
        <ele>1010.48291</ele>
        <time>2013-02-17T08:33:59Z</time>
      </trkpt>
      <trkpt lat="43.06978" lon="-0.44693">
        <ele>1011.444336</ele>
        <time>2013-02-17T08:34:18Z</time>
      </trkpt>
      <trkpt lat="43.06979" lon="-0.44706">
        <ele>1012.405518</ele>
        <time>2013-02-17T08:34:33Z</time>
      </trkpt>
      <trkpt lat="43.06978" lon="-0.44724">
        <ele>1013.366943</ele>
        <time>2013-02-17T08:34:50Z</time>
      </trkpt>
      <trkpt lat="43.06985" lon="-0.44728">
        <ele>1016.250732</ele>
        <time>2013-02-17T08:35:06Z</time>
      </trkpt>
      <trkpt lat="43.06989" lon="-0.44732">
        <ele>1019.615479</ele>
        <time>2013-02-17T08:35:17Z</time>
      </trkpt>
      <trkpt lat="43.06991" lon="-0.44736">
        <ele>1020.576904</ele>
        <time>2013-02-17T08:35:23Z</time>
      </trkpt>
      <trkpt lat="43.06998" lon="-0.44749">
        <ele>1022.980225</ele>
        <time>2013-02-17T08:35:42Z</time>
      </trkpt>
      <trkpt lat="43.07001" lon="-0.44768">
        <ele>1023.460938</ele>
        <time>2013-02-17T08:36:01Z</time>
      </trkpt>
      <trkpt lat="43.07005" lon="-0.44779">
        <ele>1026.344727</ele>
        <time>2013-02-17T08:36:22Z</time>
      </trkpt>
      <trkpt lat="43.07009" lon="-0.44788">
        <ele>1028.748047</ele>
        <time>2013-02-17T08:36:32Z</time>
      </trkpt>
      <trkpt lat="43.07019" lon="-0.44804">
        <ele>1031.151367</ele>
        <time>2013-02-17T08:36:52Z</time>
      </trkpt>
      <trkpt lat="43.07027" lon="-0.44816">
        <ele>1034.515869</ele>
        <time>2013-02-17T08:37:08Z</time>
      </trkpt>
      <trkpt lat="43.07036" lon="-0.44833">
        <ele>1037.399902</ele>
        <time>2013-02-17T08:37:29Z</time>
      </trkpt>
      <trkpt lat="43.07047" lon="-0.4485">
        <ele>1039.803223</ele>
        <time>2013-02-17T08:37:51Z</time>
      </trkpt>
      <trkpt lat="43.07057" lon="-0.44859">
        <ele>1041.72583</ele>
        <time>2013-02-17T08:38:10Z</time>
      </trkpt>
      <trkpt lat="43.07068" lon="-0.4487">
        <ele>1045.090332</ele>
        <time>2013-02-17T08:38:30Z</time>
      </trkpt>
      <trkpt lat="43.07078" lon="-0.44876">
        <ele>1048.454834</ele>
        <time>2013-02-17T08:38:47Z</time>
      </trkpt>
      <trkpt lat="43.07083" lon="-0.44881">
        <ele>1050.858154</ele>
        <time>2013-02-17T08:39:05Z</time>
      </trkpt>
      <trkpt lat="43.07091" lon="-0.44891">
        <ele>1052.300293</ele>
        <time>2013-02-17T08:39:24Z</time>
      </trkpt>
      <trkpt lat="43.07093" lon="-0.44895">
        <ele>1052.781006</ele>
        <time>2013-02-17T08:39:50Z</time>
      </trkpt>
      <trkpt lat="43.07099" lon="-0.449">
        <ele>1055.665039</ele>
        <time>2013-02-17T08:40:05Z</time>
      </trkpt>
      <trkpt lat="43.07108" lon="-0.44909">
        <ele>1059.029541</ele>
        <time>2013-02-17T08:40:24Z</time>
      </trkpt>
      <trkpt lat="43.07118" lon="-0.44921">
        <ele>1062.394043</ele>
        <time>2013-02-17T08:40:46Z</time>
      </trkpt>
      <trkpt lat="43.07125" lon="-0.44926">
        <ele>1065.278076</ele>
        <time>2013-02-17T08:41:02Z</time>
      </trkpt>
      <trkpt lat="43.07134" lon="-0.44935">
        <ele>1067.200684</ele>
        <time>2013-02-17T08:41:22Z</time>
      </trkpt>
      <trkpt lat="43.07139" lon="-0.44942">
        <ele>1068.642822</ele>
        <time>2013-02-17T08:41:42Z</time>
      </trkpt>
      <trkpt lat="43.07146" lon="-0.44952">
        <ele>1072.007324</ele>
        <time>2013-02-17T08:42:05Z</time>
      </trkpt>
      <trkpt lat="43.07156" lon="-0.44966">
        <ele>1074.410645</ele>
        <time>2013-02-17T08:42:27Z</time>
      </trkpt>
      <trkpt lat="43.07163" lon="-0.44975">
        <ele>1077.294678</ele>
        <time>2013-02-17T08:42:45Z</time>
      </trkpt>
      <trkpt lat="43.0717" lon="-0.44985">
        <ele>1080.178467</ele>
        <time>2013-02-17T08:43:03Z</time>
      </trkpt>
      <trkpt lat="43.07176" lon="-0.44994">
        <ele>1080.65918</ele>
        <time>2013-02-17T08:43:20Z</time>
      </trkpt>
      <trkpt lat="43.07181" lon="-0.45004">
        <ele>1084.023926</ele>
        <time>2013-02-17T08:43:36Z</time>
      </trkpt>
      <trkpt lat="43.07189" lon="-0.45014">
        <ele>1085.946533</ele>
        <time>2013-02-17T08:43:54Z</time>
      </trkpt>
      <trkpt lat="43.07195" lon="-0.45023">
        <ele>1087.388428</ele>
        <time>2013-02-17T08:44:10Z</time>
      </trkpt>
      <trkpt lat="43.07199" lon="-0.45031">
        <ele>1090.272461</ele>
        <time>2013-02-17T08:44:26Z</time>
      </trkpt>
      <trkpt lat="43.072" lon="-0.4504">
        <ele>1090.272461</ele>
        <time>2013-02-17T08:44:55Z</time>
      </trkpt>
      <trkpt lat="43.07202" lon="-0.45053">
        <ele>1093.636963</ele>
        <time>2013-02-17T08:45:11Z</time>
      </trkpt>
      <trkpt lat="43.07201" lon="-0.45067">
        <ele>1095.078857</ele>
        <time>2013-02-17T08:45:30Z</time>
      </trkpt>
      <trkpt lat="43.07199" lon="-0.45079">
        <ele>1095.078857</ele>
        <time>2013-02-17T08:45:45Z</time>
      </trkpt>
      <trkpt lat="43.07197" lon="-0.45093">
        <ele>1095.55957</ele>
        <time>2013-02-17T08:46:04Z</time>
      </trkpt>
      <trkpt lat="43.07197" lon="-0.45118">
        <ele>1097.482178</ele>
        <time>2013-02-17T08:46:27Z</time>
      </trkpt>
      <trkpt lat="43.07201" lon="-0.45143">
        <ele>1100.366455</ele>
        <time>2013-02-17T08:46:51Z</time>
      </trkpt>
      <trkpt lat="43.07203" lon="-0.45161">
        <ele>1103.250244</ele>
        <time>2013-02-17T08:47:09Z</time>
      </trkpt>
      <trkpt lat="43.07207" lon="-0.45184">
        <ele>1104.21167</ele>
        <time>2013-02-17T08:47:31Z</time>
      </trkpt>
      <trkpt lat="43.07213" lon="-0.45195">
        <ele>1107.576172</ele>
        <time>2013-02-17T08:47:47Z</time>
      </trkpt>
      <trkpt lat="43.07219" lon="-0.45218">
        <ele>1109.498779</ele>
        <time>2013-02-17T08:48:13Z</time>
      </trkpt>
      <trkpt lat="43.07225" lon="-0.45234">
        <ele>1111.421387</ele>
        <time>2013-02-17T08:48:35Z</time>
      </trkpt>
      <trkpt lat="43.07229" lon="-0.4525">
        <ele>1111.9021</ele>
        <time>2013-02-17T08:48:54Z</time>
      </trkpt>
      <trkpt lat="43.07236" lon="-0.45274">
        <ele>1112.863281</ele>
        <time>2013-02-17T08:49:18Z</time>
      </trkpt>
      <trkpt lat="43.07244" lon="-0.45296">
        <ele>1113.824463</ele>
        <time>2013-02-17T08:49:41Z</time>
      </trkpt>
      <trkpt lat="43.07252" lon="-0.45315">
        <ele>1113.824463</ele>
        <time>2013-02-17T08:50:02Z</time>
      </trkpt>
      <trkpt lat="43.07257" lon="-0.45325">
        <ele>1113.824463</ele>
        <time>2013-02-17T08:50:22Z</time>
      </trkpt>
      <trkpt lat="43.07264" lon="-0.45339">
        <ele>1114.785889</ele>
        <time>2013-02-17T08:50:44Z</time>
      </trkpt>
      <trkpt lat="43.07268" lon="-0.45342">
        <ele>1116.228027</ele>
        <time>2013-02-17T08:52:21Z</time>
      </trkpt>
      <trkpt lat="43.07274" lon="-0.45358">
        <ele>1114.305176</ele>
        <time>2013-02-17T08:52:41Z</time>
      </trkpt>
      <trkpt lat="43.07278" lon="-0.45363">
        <ele>1114.785889</ele>
        <time>2013-02-17T08:53:08Z</time>
      </trkpt>
      <trkpt lat="43.07289" lon="-0.45385">
        <ele>1113.824463</ele>
        <time>2013-02-17T08:53:30Z</time>
      </trkpt>
      <trkpt lat="43.07295" lon="-0.45393">
        <ele>1114.305176</ele>
        <time>2013-02-17T08:53:41Z</time>
      </trkpt>
      <trkpt lat="43.07301" lon="-0.45407">
        <ele>1115.266602</ele>
        <time>2013-02-17T08:53:59Z</time>
      </trkpt>
      <trkpt lat="43.07306" lon="-0.45417">
        <ele>1116.228027</ele>
        <time>2013-02-17T08:54:12Z</time>
      </trkpt>
      <trkpt lat="43.07308" lon="-0.45438">
        <ele>1116.70874</ele>
        <time>2013-02-17T08:54:30Z</time>
      </trkpt>
      <trkpt lat="43.07309" lon="-0.4545">
        <ele>1120.553955</ele>
        <time>2013-02-17T08:54:41Z</time>
      </trkpt>
      <trkpt lat="43.0731" lon="-0.45472">
        <ele>1123.437988</ele>
        <time>2013-02-17T08:55:02Z</time>
      </trkpt>
      <trkpt lat="43.07314" lon="-0.4549">
        <ele>1124.39917</ele>
        <time>2013-02-17T08:55:25Z</time>
      </trkpt>
      <trkpt lat="43.07316" lon="-0.45495">
        <ele>1124.879883</ele>
        <time>2013-02-17T08:55:45Z</time>
      </trkpt>
      <trkpt lat="43.07321" lon="-0.45508">
        <ele>1127.763672</ele>
        <time>2013-02-17T08:56:04Z</time>
      </trkpt>
      <trkpt lat="43.07327" lon="-0.45529">
        <ele>1130.166992</ele>
        <time>2013-02-17T08:56:29Z</time>
      </trkpt>
      <trkpt lat="43.07331" lon="-0.45549">
        <ele>1133.051025</ele>
        <time>2013-02-17T08:56:49Z</time>
      </trkpt>
      <trkpt lat="43.07336" lon="-0.45562">
        <ele>1135.454346</ele>
        <time>2013-02-17T08:57:08Z</time>
      </trkpt>
      <trkpt lat="43.0734" lon="-0.45574">
        <ele>1137.857666</ele>
        <time>2013-02-17T08:57:26Z</time>
      </trkpt>
      <trkpt lat="43.07344" lon="-0.45588">
        <ele>1138.819092</ele>
        <time>2013-02-17T08:57:47Z</time>
      </trkpt>
      <trkpt lat="43.07347" lon="-0.45604">
        <ele>1141.702881</ele>
        <time>2013-02-17T08:58:06Z</time>
      </trkpt>
      <trkpt lat="43.07349" lon="-0.45623">
        <ele>1143.625488</ele>
        <time>2013-02-17T08:58:27Z</time>
      </trkpt>
      <trkpt lat="43.07351" lon="-0.45639">
        <ele>1146.028809</ele>
        <time>2013-02-17T08:58:46Z</time>
      </trkpt>
      <trkpt lat="43.07353" lon="-0.45653">
        <ele>1146.98999</ele>
        <time>2013-02-17T08:59:04Z</time>
      </trkpt>
      <trkpt lat="43.07356" lon="-0.45672">
        <ele>1149.393555</ele>
        <time>2013-02-17T08:59:25Z</time>
      </trkpt>
      <trkpt lat="43.07359" lon="-0.45693">
        <ele>1151.796875</ele>
        <time>2013-02-17T08:59:47Z</time>
      </trkpt>
      <trkpt lat="43.07362" lon="-0.4571">
        <ele>1154.200195</ele>
        <time>2013-02-17T09:00:08Z</time>
      </trkpt>
      <trkpt lat="43.07364" lon="-0.45721">
        <ele>1154.200195</ele>
        <time>2013-02-17T09:00:29Z</time>
      </trkpt>
      <trkpt lat="43.07366" lon="-0.45735">
        <ele>1155.64209</ele>
        <time>2013-02-17T09:00:49Z</time>
      </trkpt>
      <trkpt lat="43.0737" lon="-0.45742">
        <ele>1158.04541</ele>
        <time>2013-02-17T09:01:07Z</time>
      </trkpt>
      <trkpt lat="43.07374" lon="-0.45746">
        <ele>1159.967773</ele>
        <time>2013-02-17T09:01:22Z</time>
      </trkpt>
      <trkpt lat="43.07373" lon="-0.45758">
        <ele>1161.890625</ele>
        <time>2013-02-17T09:01:40Z</time>
      </trkpt>
      <trkpt lat="43.07369" lon="-0.45776">
        <ele>1162.371094</ele>
        <time>2013-02-17T09:02:00Z</time>
      </trkpt>
      <trkpt lat="43.07368" lon="-0.45796">
        <ele>1164.774658</ele>
        <time>2013-02-17T09:02:19Z</time>
      </trkpt>
      <trkpt lat="43.07368" lon="-0.45797">
        <ele>1164.774658</ele>
        <time>2013-02-17T09:02:20Z</time>
      </trkpt>
      <trkpt lat="43.07367" lon="-0.45826">
        <ele>1164.774658</ele>
        <time>2013-02-17T09:02:45Z</time>
      </trkpt>
      <trkpt lat="43.07368" lon="-0.45845">
        <ele>1167.177979</ele>
        <time>2013-02-17T09:03:06Z</time>
      </trkpt>
      <trkpt lat="43.07369" lon="-0.45862">
        <ele>1169.581299</ele>
        <time>2013-02-17T09:03:28Z</time>
      </trkpt>
      <trkpt lat="43.07369" lon="-0.45884">
        <ele>1170.54248</ele>
        <time>2013-02-17T09:03:50Z</time>
      </trkpt>
      <trkpt lat="43.07369" lon="-0.45907">
        <ele>1172.465088</ele>
        <time>2013-02-17T09:04:14Z</time>
      </trkpt>
      <trkpt lat="43.07369" lon="-0.45921">
        <ele>1171.984375</ele>
        <time>2013-02-17T09:04:33Z</time>
      </trkpt>
      <trkpt lat="43.07369" lon="-0.45944">
        <ele>1174.387695</ele>
        <time>2013-02-17T09:04:54Z</time>
      </trkpt>
      <trkpt lat="43.07368" lon="-0.4596">
        <ele>1176.310303</ele>
        <time>2013-02-17T09:05:11Z</time>
      </trkpt>
      <trkpt lat="43.07366" lon="-0.45983">
        <ele>1177.271729</ele>
        <time>2013-02-17T09:05:35Z</time>
      </trkpt>
      <trkpt lat="43.07364" lon="-0.46">
        <ele>1178.713623</ele>
        <time>2013-02-17T09:05:57Z</time>
      </trkpt>
      <trkpt lat="43.07363" lon="-0.46007">
        <ele>1180.636475</ele>
        <time>2013-02-17T09:06:15Z</time>
      </trkpt>
      <trkpt lat="43.07365" lon="-0.46018">
        <ele>1183.039551</ele>
        <time>2013-02-17T09:06:34Z</time>
      </trkpt>
      <trkpt lat="43.07368" lon="-0.4603">
        <ele>1185.923584</ele>
        <time>2013-02-17T09:06:55Z</time>
      </trkpt>
      <trkpt lat="43.07371" lon="-0.46042">
        <ele>1187.846191</ele>
        <time>2013-02-17T09:07:13Z</time>
      </trkpt>
      <trkpt lat="43.07373" lon="-0.46055">
        <ele>1189.768799</ele>
        <time>2013-02-17T09:07:30Z</time>
      </trkpt>
      <trkpt lat="43.07374" lon="-0.46062">
        <ele>1190.249512</ele>
        <time>2013-02-17T09:07:53Z</time>
      </trkpt>
      <trkpt lat="43.07375" lon="-0.46071">
        <ele>1190.72998</ele>
        <time>2013-02-17T09:08:11Z</time>
      </trkpt>
      <trkpt lat="43.07378" lon="-0.4609">
        <ele>1193.133301</ele>
        <time>2013-02-17T09:08:30Z</time>
      </trkpt>
      <trkpt lat="43.07381" lon="-0.4611">
        <ele>1195.055908</ele>
        <time>2013-02-17T09:08:52Z</time>
      </trkpt>
      <trkpt lat="43.07386" lon="-0.46131">
        <ele>1196.498291</ele>
        <time>2013-02-17T09:09:14Z</time>
      </trkpt>
      <trkpt lat="43.07389" lon="-0.4615">
        <ele>1197.940186</ele>
        <time>2013-02-17T09:09:33Z</time>
      </trkpt>
      <trkpt lat="43.07394" lon="-0.46161">
        <ele>1200.343506</ele>
        <time>2013-02-17T09:09:54Z</time>
      </trkpt>
      <trkpt lat="43.07399" lon="-0.46181">
        <ele>1201.304688</ele>
        <time>2013-02-17T09:10:16Z</time>
      </trkpt>
      <trkpt lat="43.074" lon="-0.46203">
        <ele>1200.343506</ele>
        <time>2013-02-17T09:10:36Z</time>
      </trkpt>
      <trkpt lat="43.07404" lon="-0.46227">
        <ele>1200.823975</ele>
        <time>2013-02-17T09:10:57Z</time>
      </trkpt>
      <trkpt lat="43.07406" lon="-0.46236">
        <ele>1200.343506</ele>
        <time>2013-02-17T09:11:18Z</time>
      </trkpt>
      <trkpt lat="43.07408" lon="-0.46239">
        <ele>1200.823975</ele>
        <time>2013-02-17T09:11:44Z</time>
      </trkpt>
      <trkpt lat="43.0742" lon="-0.46254">
        <ele>1201.7854</ele>
        <time>2013-02-17T09:12:05Z</time>
      </trkpt>
      <trkpt lat="43.07433" lon="-0.46266">
        <ele>1202.746582</ele>
        <time>2013-02-17T09:12:25Z</time>
      </trkpt>
      <trkpt lat="43.07444" lon="-0.46277">
        <ele>1203.708008</ele>
        <time>2013-02-17T09:12:46Z</time>
      </trkpt>
      <trkpt lat="43.07451" lon="-0.46291">
        <ele>1203.227295</ele>
        <time>2013-02-17T09:13:06Z</time>
      </trkpt>
      <trkpt lat="43.07454" lon="-0.46292">
        <ele>1204.188721</ele>
        <time>2013-02-17T09:14:00Z</time>
      </trkpt>
      <trkpt lat="43.07456" lon="-0.46289">
        <ele>1205.149902</ele>
        <time>2013-02-17T09:14:52Z</time>
      </trkpt>
      <trkpt lat="43.07455" lon="-0.46283">
        <ele>1205.630615</ele>
        <time>2013-02-17T09:15:54Z</time>
      </trkpt>
      <trkpt lat="43.07452" lon="-0.4628">
        <ele>1206.111084</ele>
        <time>2013-02-17T09:17:21Z</time>
      </trkpt>
      <trkpt lat="43.07452" lon="-0.4628">
        <ele>1206.591797</ele>
        <time>2013-02-17T09:17:40Z</time>
      </trkpt>
      <trkpt lat="43.07458" lon="-0.46288">
        <ele>1206.111084</ele>
        <time>2013-02-17T09:18:47Z</time>
      </trkpt>
      <trkpt lat="43.07457" lon="-0.46294">
        <ele>1204.188721</ele>
        <time>2013-02-17T09:19:09Z</time>
      </trkpt>
      <trkpt lat="43.07469" lon="-0.46304">
        <ele>1205.630615</ele>
        <time>2013-02-17T09:19:54Z</time>
      </trkpt>
      <trkpt lat="43.07483" lon="-0.46316">
        <ele>1207.07251</ele>
        <time>2013-02-17T09:20:15Z</time>
      </trkpt>
      <trkpt lat="43.07498" lon="-0.46331">
        <ele>1209.47583</ele>
        <time>2013-02-17T09:20:38Z</time>
      </trkpt>
      <trkpt lat="43.07511" lon="-0.46345">
        <ele>1210.437012</ele>
        <time>2013-02-17T09:21:00Z</time>
      </trkpt>
      <trkpt lat="43.07528" lon="-0.4636">
        <ele>1212.840576</ele>
        <time>2013-02-17T09:21:26Z</time>
      </trkpt>
      <trkpt lat="43.07541" lon="-0.46365">
        <ele>1214.763184</ele>
        <time>2013-02-17T09:21:47Z</time>
      </trkpt>
      <trkpt lat="43.07555" lon="-0.46374">
        <ele>1216.685791</ele>
        <time>2013-02-17T09:22:09Z</time>
      </trkpt>
      <trkpt lat="43.0757" lon="-0.46387">
        <ele>1219.569824</ele>
        <time>2013-02-17T09:22:33Z</time>
      </trkpt>
      <trkpt lat="43.07587" lon="-0.46401">
        <ele>1221.492188</ele>
        <time>2013-02-17T09:22:58Z</time>
      </trkpt>
      <trkpt lat="43.07595" lon="-0.46408">
        <ele>1221.9729</ele>
        <time>2013-02-17T09:23:22Z</time>
      </trkpt>
      <trkpt lat="43.07608" lon="-0.46419">
        <ele>1222.934326</ele>
        <time>2013-02-17T09:23:41Z</time>
      </trkpt>
      <trkpt lat="43.07623" lon="-0.46432">
        <ele>1224.856934</ele>
        <time>2013-02-17T09:24:05Z</time>
      </trkpt>
      <trkpt lat="43.07638" lon="-0.46443">
        <ele>1226.298828</ele>
        <time>2013-02-17T09:24:27Z</time>
      </trkpt>
      <trkpt lat="43.07648" lon="-0.46447">
        <ele>1229.663574</ele>
        <time>2013-02-17T09:24:44Z</time>
      </trkpt>
      <trkpt lat="43.07657" lon="-0.4645">
        <ele>1231.105713</ele>
        <time>2013-02-17T09:25:02Z</time>
      </trkpt>
      <trkpt lat="43.0766" lon="-0.46454">
        <ele>1231.586182</ele>
        <time>2013-02-17T09:25:21Z</time>
      </trkpt>
      <trkpt lat="43.07667" lon="-0.46457">
        <ele>1232.547607</ele>
        <time>2013-02-17T09:25:41Z</time>
      </trkpt>
      <trkpt lat="43.07678" lon="-0.46472">
        <ele>1234.470215</ele>
        <time>2013-02-17T09:26:02Z</time>
      </trkpt>
      <trkpt lat="43.07687" lon="-0.46489">
        <ele>1235.431396</ele>
        <time>2013-02-17T09:26:21Z</time>
      </trkpt>
      <trkpt lat="43.07691" lon="-0.46494">
        <ele>1237.354004</ele>
        <time>2013-02-17T09:26:29Z</time>
      </trkpt>
      <trkpt lat="43.07692" lon="-0.46495">
        <ele>1236.873291</ele>
        <time>2013-02-17T09:26:30Z</time>
      </trkpt>
      <trkpt lat="43.07695" lon="-0.46501">
        <ele>1239.757324</ele>
        <time>2013-02-17T09:26:42Z</time>
      </trkpt>
      <trkpt lat="43.077" lon="-0.46516">
        <ele>1240.718506</ele>
        <time>2013-02-17T09:26:59Z</time>
      </trkpt>
      <trkpt lat="43.07704" lon="-0.46534">
        <ele>1242.160645</ele>
        <time>2013-02-17T09:27:18Z</time>
      </trkpt>
      <trkpt lat="43.07709" lon="-0.46552">
        <ele>1244.083496</ele>
        <time>2013-02-17T09:27:37Z</time>
      </trkpt>
      <trkpt lat="43.07715" lon="-0.46561">
        <ele>1246.006104</ele>
        <time>2013-02-17T09:27:53Z</time>
      </trkpt>
      <trkpt lat="43.07721" lon="-0.46567">
        <ele>1248.889893</ele>
        <time>2013-02-17T09:28:11Z</time>
      </trkpt>
      <trkpt lat="43.07726" lon="-0.46567">
        <ele>1251.773926</ele>
        <time>2013-02-17T09:28:23Z</time>
      </trkpt>
      <trkpt lat="43.07732" lon="-0.46568">
        <ele>1255.619141</ele>
        <time>2013-02-17T09:28:38Z</time>
      </trkpt>
      <trkpt lat="43.07738" lon="-0.46566">
        <ele>1258.022461</ele>
        <time>2013-02-17T09:28:54Z</time>
      </trkpt>
      <trkpt lat="43.07744" lon="-0.46568">
        <ele>1258.983643</ele>
        <time>2013-02-17T09:29:08Z</time>
      </trkpt>
      <trkpt lat="43.07748" lon="-0.46568">
        <ele>1262.348389</ele>
        <time>2013-02-17T09:29:21Z</time>
      </trkpt>
      <trkpt lat="43.07748" lon="-0.46569">
        <ele>1263.309814</ele>
        <time>2013-02-17T09:29:50Z</time>
      </trkpt>
      <trkpt lat="43.07753" lon="-0.4658">
        <ele>1264.270996</ele>
        <time>2013-02-17T09:30:15Z</time>
      </trkpt>
      <trkpt lat="43.07757" lon="-0.46593">
        <ele>1266.193604</ele>
        <time>2013-02-17T09:30:32Z</time>
      </trkpt>
      <trkpt lat="43.07762" lon="-0.46602">
        <ele>1268.596924</ele>
        <time>2013-02-17T09:30:46Z</time>
      </trkpt>
      <trkpt lat="43.07763" lon="-0.46606">
        <ele>1270.038818</ele>
        <time>2013-02-17T09:30:52Z</time>
      </trkpt>
      <trkpt lat="43.07766" lon="-0.46616">
        <ele>1272.922852</ele>
        <time>2013-02-17T09:31:08Z</time>
      </trkpt>
      <trkpt lat="43.07762" lon="-0.46628">
        <ele>1275.806641</ele>
        <time>2013-02-17T09:31:25Z</time>
      </trkpt>
      <trkpt lat="43.07757" lon="-0.46636">
        <ele>1277.729492</ele>
        <time>2013-02-17T09:31:38Z</time>
      </trkpt>
      <trkpt lat="43.07757" lon="-0.46645">
        <ele>1279.6521</ele>
        <time>2013-02-17T09:31:56Z</time>
      </trkpt>
      <trkpt lat="43.07761" lon="-0.46656">
        <ele>1282.05542</ele>
        <time>2013-02-17T09:32:13Z</time>
      </trkpt>
      <trkpt lat="43.07772" lon="-0.46652">
        <ele>1283.497314</ele>
        <time>2013-02-17T09:32:38Z</time>
      </trkpt>
      <trkpt lat="43.07768" lon="-0.46667">
        <ele>1284.45874</ele>
        <time>2013-02-17T09:32:58Z</time>
      </trkpt>
      <trkpt lat="43.07767" lon="-0.46677">
        <ele>1287.823242</ele>
        <time>2013-02-17T09:33:10Z</time>
      </trkpt>
      <trkpt lat="43.07766" lon="-0.46684">
        <ele>1291.187744</ele>
        <time>2013-02-17T09:33:22Z</time>
      </trkpt>
      <trkpt lat="43.07762" lon="-0.46688">
        <ele>1294.55249</ele>
        <time>2013-02-17T09:33:36Z</time>
      </trkpt>
      <trkpt lat="43.07757" lon="-0.46688">
        <ele>1295.033203</ele>
        <time>2013-02-17T09:33:57Z</time>
      </trkpt>
      <trkpt lat="43.07764" lon="-0.46691">
        <ele>1295.033203</ele>
        <time>2013-02-17T09:35:14Z</time>
      </trkpt>
      <trkpt lat="43.07767" lon="-0.46701">
        <ele>1298.397705</ele>
        <time>2013-02-17T09:35:27Z</time>
      </trkpt>
      <trkpt lat="43.07768" lon="-0.46702">
        <ele>1298.397705</ele>
        <time>2013-02-17T09:35:28Z</time>
      </trkpt>
      <trkpt lat="43.07769" lon="-0.46705">
        <ele>1298.878418</ele>
        <time>2013-02-17T09:35:32Z</time>
      </trkpt>
      <trkpt lat="43.07771" lon="-0.46718">
        <ele>1301.281738</ele>
        <time>2013-02-17T09:35:48Z</time>
      </trkpt>
      <trkpt lat="43.07773" lon="-0.46733">
        <ele>1303.204346</ele>
        <time>2013-02-17T09:36:03Z</time>
      </trkpt>
      <trkpt lat="43.07776" lon="-0.46747">
        <ele>1304.165771</ele>
        <time>2013-02-17T09:36:20Z</time>
      </trkpt>
      <trkpt lat="43.07776" lon="-0.46759">
        <ele>1306.568848</ele>
        <time>2013-02-17T09:36:36Z</time>
      </trkpt>
      <trkpt lat="43.07777" lon="-0.46761">
        <ele>1307.530273</ele>
        <time>2013-02-17T09:36:38Z</time>
      </trkpt>
      <trkpt lat="43.0778" lon="-0.46776">
        <ele>1308.01123</ele>
        <time>2013-02-17T09:36:55Z</time>
      </trkpt>
      <trkpt lat="43.07783" lon="-0.46781">
        <ele>1308.491699</ele>
        <time>2013-02-17T09:37:06Z</time>
      </trkpt>
      <trkpt lat="43.07786" lon="-0.46796">
        <ele>1309.933594</ele>
        <time>2013-02-17T09:37:22Z</time>
      </trkpt>
      <trkpt lat="43.0778" lon="-0.46812">
        <ele>1310.89502</ele>
        <time>2013-02-17T09:37:41Z</time>
      </trkpt>
      <trkpt lat="43.07779" lon="-0.46829">
        <ele>1311.856445</ele>
        <time>2013-02-17T09:38:24Z</time>
      </trkpt>
      <trkpt lat="43.07773" lon="-0.46853">
        <ele>1314.740234</ele>
        <time>2013-02-17T09:38:47Z</time>
      </trkpt>
      <trkpt lat="43.07772" lon="-0.46862">
        <ele>1316.662842</ele>
        <time>2013-02-17T09:39:06Z</time>
      </trkpt>
      <trkpt lat="43.0777" lon="-0.46875">
        <ele>1320.027344</ele>
        <time>2013-02-17T09:39:22Z</time>
      </trkpt>
      <trkpt lat="43.07768" lon="-0.46887">
        <ele>1322.911377</ele>
        <time>2013-02-17T09:39:36Z</time>
      </trkpt>
      <trkpt lat="43.07767" lon="-0.46899">
        <ele>1324.834229</ele>
        <time>2013-02-17T09:39:58Z</time>
      </trkpt>
      <trkpt lat="43.07764" lon="-0.46917">
        <ele>1326.276123</ele>
        <time>2013-02-17T09:40:15Z</time>
      </trkpt>
      <trkpt lat="43.07763" lon="-0.46931">
        <ele>1329.159912</ele>
        <time>2013-02-17T09:40:32Z</time>
      </trkpt>
      <trkpt lat="43.07763" lon="-0.46932">
        <ele>1329.640625</ele>
        <time>2013-02-17T09:40:33Z</time>
      </trkpt>
      <trkpt lat="43.07767" lon="-0.4694">
        <ele>1332.043945</ele>
        <time>2013-02-17T09:40:52Z</time>
      </trkpt>
      <trkpt lat="43.07774" lon="-0.46951">
        <ele>1335.408447</ele>
        <time>2013-02-17T09:41:10Z</time>
      </trkpt>
      <trkpt lat="43.07778" lon="-0.4696">
        <ele>1336.369873</ele>
        <time>2013-02-17T09:41:27Z</time>
      </trkpt>
      <trkpt lat="43.07782" lon="-0.46968">
        <ele>1337.331055</ele>
        <time>2013-02-17T09:41:45Z</time>
      </trkpt>
      <trkpt lat="43.0778" lon="-0.46987">
        <ele>1337.331055</ele>
        <time>2013-02-17T09:42:03Z</time>
      </trkpt>
      <trkpt lat="43.07776" lon="-0.47007">
        <ele>1338.773193</ele>
        <time>2013-02-17T09:42:21Z</time>
      </trkpt>
      <trkpt lat="43.07776" lon="-0.47021">
        <ele>1342.137939</ele>
        <time>2013-02-17T09:42:37Z</time>
      </trkpt>
      <trkpt lat="43.07767" lon="-0.47037">
        <ele>1342.137939</ele>
        <time>2013-02-17T09:42:56Z</time>
      </trkpt>
      <trkpt lat="43.07766" lon="-0.47057">
        <ele>1344.541016</ele>
        <time>2013-02-17T09:43:15Z</time>
      </trkpt>
      <trkpt lat="43.07769" lon="-0.47079">
        <ele>1345.983154</ele>
        <time>2013-02-17T09:43:35Z</time>
      </trkpt>
      <trkpt lat="43.0777" lon="-0.47102">
        <ele>1348.38623</ele>
        <time>2013-02-17T09:43:55Z</time>
      </trkpt>
      <trkpt lat="43.07771" lon="-0.47113">
        <ele>1351.750977</ele>
        <time>2013-02-17T09:44:07Z</time>
      </trkpt>
      <trkpt lat="43.07773" lon="-0.47126">
        <ele>1354.154297</ele>
        <time>2013-02-17T09:44:25Z</time>
      </trkpt>
      <trkpt lat="43.07772" lon="-0.47135">
        <ele>1357.03833</ele>
        <time>2013-02-17T09:44:37Z</time>
      </trkpt>
      <trkpt lat="43.0777" lon="-0.47144">
        <ele>1360.402832</ele>
        <time>2013-02-17T09:44:51Z</time>
      </trkpt>
      <trkpt lat="43.07772" lon="-0.47155">
        <ele>1363.286865</ele>
        <time>2013-02-17T09:45:09Z</time>
      </trkpt>
      <trkpt lat="43.07773" lon="-0.47164">
        <ele>1366.170654</ele>
        <time>2013-02-17T09:45:24Z</time>
      </trkpt>
      <trkpt lat="43.07776" lon="-0.47178">
        <ele>1367.13208</ele>
        <time>2013-02-17T09:46:00Z</time>
      </trkpt>
      <trkpt lat="43.07779" lon="-0.47186">
        <ele>1368.573975</ele>
        <time>2013-02-17T09:46:20Z</time>
      </trkpt>
      <trkpt lat="43.07784" lon="-0.47209">
        <ele>1371.457764</ele>
        <time>2013-02-17T09:46:41Z</time>
      </trkpt>
      <trkpt lat="43.07788" lon="-0.47222">
        <ele>1372.419434</ele>
        <time>2013-02-17T09:46:59Z</time>
      </trkpt>
      <trkpt lat="43.07795" lon="-0.47237">
        <ele>1374.342041</ele>
        <time>2013-02-17T09:47:20Z</time>
      </trkpt>
      <trkpt lat="43.07803" lon="-0.47248">
        <ele>1373.861328</ele>
        <time>2013-02-17T09:47:48Z</time>
      </trkpt>
      <trkpt lat="43.07813" lon="-0.47263">
        <ele>1372.900146</ele>
        <time>2013-02-17T09:48:07Z</time>
      </trkpt>
      <trkpt lat="43.07815" lon="-0.47268">
        <ele>1372.900146</ele>
        <time>2013-02-17T09:48:28Z</time>
      </trkpt>
      <trkpt lat="43.07825" lon="-0.47281">
        <ele>1371.457764</ele>
        <time>2013-02-17T09:48:54Z</time>
      </trkpt>
      <trkpt lat="43.07835" lon="-0.47292">
        <ele>1371.457764</ele>
        <time>2013-02-17T09:49:14Z</time>
      </trkpt>
      <trkpt lat="43.07844" lon="-0.47309">
        <ele>1370.977295</ele>
        <time>2013-02-17T09:49:33Z</time>
      </trkpt>
      <trkpt lat="43.07847" lon="-0.47312">
        <ele>1370.977295</ele>
        <time>2013-02-17T09:49:56Z</time>
      </trkpt>
      <trkpt lat="43.07851" lon="-0.47318">
        <ele>1370.496582</ele>
        <time>2013-02-17T09:50:33Z</time>
      </trkpt>
      <trkpt lat="43.07852" lon="-0.47324">
        <ele>1367.612549</ele>
        <time>2013-02-17T09:50:48Z</time>
      </trkpt>
      <trkpt lat="43.07853" lon="-0.47324">
        <ele>1367.13208</ele>
        <time>2013-02-17T09:50:53Z</time>
      </trkpt>
      <trkpt lat="43.07853" lon="-0.47323">
        <ele>1369.5354</ele>
        <time>2013-02-17T09:51:40Z</time>
      </trkpt>
      <trkpt lat="43.07849" lon="-0.47319">
        <ele>1370.015869</ele>
        <time>2013-02-17T09:54:25Z</time>
      </trkpt>
      <trkpt lat="43.07845" lon="-0.47315">
        <ele>1370.015869</ele>
        <time>2013-02-17T09:54:43Z</time>
      </trkpt>
      <trkpt lat="43.07842" lon="-0.47304">
        <ele>1370.496582</ele>
        <time>2013-02-17T09:55:01Z</time>
      </trkpt>
      <trkpt lat="43.07828" lon="-0.47283">
        <ele>1370.977295</ele>
        <time>2013-02-17T09:55:22Z</time>
      </trkpt>
      <trkpt lat="43.07822" lon="-0.47276">
        <ele>1370.977295</ele>
        <time>2013-02-17T09:55:29Z</time>
      </trkpt>
      <trkpt lat="43.07805" lon="-0.47252">
        <ele>1372.900146</ele>
        <time>2013-02-17T09:55:52Z</time>
      </trkpt>
      <trkpt lat="43.07796" lon="-0.47239">
        <ele>1372.900146</ele>
        <time>2013-02-17T09:56:11Z</time>
      </trkpt>
      <trkpt lat="43.07794" lon="-0.47237">
        <ele>1371.938477</ele>
        <time>2013-02-17T09:56:31Z</time>
      </trkpt>
      <trkpt lat="43.0779" lon="-0.47229">
        <ele>1371.938477</ele>
        <time>2013-02-17T09:56:47Z</time>
      </trkpt>
      <trkpt lat="43.07789" lon="-0.47221">
        <ele>1370.977295</ele>
        <time>2013-02-17T09:57:21Z</time>
      </trkpt>
      <trkpt lat="43.07787" lon="-0.47214">
        <ele>1370.496582</ele>
        <time>2013-02-17T09:57:37Z</time>
      </trkpt>
      <trkpt lat="43.07784" lon="-0.47208">
        <ele>1368.573975</ele>
        <time>2013-02-17T09:58:09Z</time>
      </trkpt>
      <trkpt lat="43.07779" lon="-0.47188">
        <ele>1367.13208</ele>
        <time>2013-02-17T09:58:29Z</time>
      </trkpt>
      <trkpt lat="43.07775" lon="-0.47168">
        <ele>1364.248047</ele>
        <time>2013-02-17T09:58:50Z</time>
      </trkpt>
      <trkpt lat="43.07772" lon="-0.47157">
        <ele>1363.286865</ele>
        <time>2013-02-17T09:59:07Z</time>
      </trkpt>
      <trkpt lat="43.07772" lon="-0.47149">
        <ele>1359.922119</ele>
        <time>2013-02-17T09:59:18Z</time>
      </trkpt>
      <trkpt lat="43.07771" lon="-0.47137">
        <ele>1356.557617</ele>
        <time>2013-02-17T09:59:34Z</time>
      </trkpt>
      <trkpt lat="43.07772" lon="-0.47125">
        <ele>1353.673584</ele>
        <time>2013-02-17T09:59:51Z</time>
      </trkpt>
      <trkpt lat="43.07773" lon="-0.47116">
        <ele>1350.309082</ele>
        <time>2013-02-17T10:00:07Z</time>
      </trkpt>
      <trkpt lat="43.07768" lon="-0.47102">
        <ele>1348.38623</ele>
        <time>2013-02-17T10:00:25Z</time>
      </trkpt>
      <trkpt lat="43.07761" lon="-0.47088">
        <ele>1345.502441</ele>
        <time>2013-02-17T10:00:41Z</time>
      </trkpt>
      <trkpt lat="43.07757" lon="-0.47074">
        <ele>1343.099121</ele>
        <time>2013-02-17T10:01:01Z</time>
      </trkpt>
      <trkpt lat="43.07759" lon="-0.47059">
        <ele>1343.099121</ele>
        <time>2013-02-17T10:01:19Z</time>
      </trkpt>
      <trkpt lat="43.07759" lon="-0.47058">
        <ele>1342.618652</ele>
        <time>2013-02-17T10:01:20Z</time>
      </trkpt>
      <trkpt lat="43.07761" lon="-0.47055">
        <ele>1342.618652</ele>
        <time>2013-02-17T10:01:23Z</time>
      </trkpt>
      <trkpt lat="43.07766" lon="-0.4704">
        <ele>1341.657227</ele>
        <time>2013-02-17T10:01:39Z</time>
      </trkpt>
      <trkpt lat="43.0777" lon="-0.47023">
        <ele>1338.773193</ele>
        <time>2013-02-17T10:01:57Z</time>
      </trkpt>
      <trkpt lat="43.07772" lon="-0.47011">
        <ele>1338.29248</ele>
        <time>2013-02-17T10:02:13Z</time>
      </trkpt>
      <trkpt lat="43.07773" lon="-0.46998">
        <ele>1336.850342</ele>
        <time>2013-02-17T10:02:29Z</time>
      </trkpt>
      <trkpt lat="43.07775" lon="-0.46984">
        <ele>1335.88916</ele>
        <time>2013-02-17T10:02:45Z</time>
      </trkpt>
      <trkpt lat="43.07777" lon="-0.46968">
        <ele>1334.447266</ele>
        <time>2013-02-17T10:03:02Z</time>
      </trkpt>
      <trkpt lat="43.0778" lon="-0.46957">
        <ele>1333.966553</ele>
        <time>2013-02-17T10:03:17Z</time>
      </trkpt>
      <trkpt lat="43.07771" lon="-0.46944">
        <ele>1331.563232</ele>
        <time>2013-02-17T10:03:34Z</time>
      </trkpt>
      <trkpt lat="43.07764" lon="-0.46934">
        <ele>1328.19873</ele>
        <time>2013-02-17T10:03:48Z</time>
      </trkpt>
      <trkpt lat="43.07764" lon="-0.46919">
        <ele>1324.834229</ele>
        <time>2013-02-17T10:04:03Z</time>
      </trkpt>
      <trkpt lat="43.07768" lon="-0.46894">
        <ele>1322.430664</ele>
        <time>2013-02-17T10:04:22Z</time>
      </trkpt>
      <trkpt lat="43.0777" lon="-0.46873">
        <ele>1319.546875</ele>
        <time>2013-02-17T10:04:38Z</time>
      </trkpt>
      <trkpt lat="43.0777" lon="-0.4687">
        <ele>1318.104736</ele>
        <time>2013-02-17T10:04:41Z</time>
      </trkpt>
      <trkpt lat="43.07772" lon="-0.46856">
        <ele>1314.740234</ele>
        <time>2013-02-17T10:04:55Z</time>
      </trkpt>
      <trkpt lat="43.07777" lon="-0.46845">
        <ele>1311.856445</ele>
        <time>2013-02-17T10:05:07Z</time>
      </trkpt>
      <trkpt lat="43.07779" lon="-0.46841">
        <ele>1311.375732</ele>
        <time>2013-02-17T10:05:10Z</time>
      </trkpt>
      <trkpt lat="43.07781" lon="-0.46808">
        <ele>1309.453125</ele>
        <time>2013-02-17T10:05:33Z</time>
      </trkpt>
      <trkpt lat="43.07788" lon="-0.46788">
        <ele>1308.01123</ele>
        <time>2013-02-17T10:05:49Z</time>
      </trkpt>
      <trkpt lat="43.07781" lon="-0.4678">
        <ele>1307.049561</ele>
        <time>2013-02-17T10:06:06Z</time>
      </trkpt>
      <trkpt lat="43.07777" lon="-0.46768">
        <ele>1306.088135</ele>
        <time>2013-02-17T10:06:19Z</time>
      </trkpt>
      <trkpt lat="43.07778" lon="-0.46759">
        <ele>1303.685059</ele>
        <time>2013-02-17T10:06:28Z</time>
      </trkpt>
      <trkpt lat="43.07778" lon="-0.46757">
        <ele>1302.723633</ele>
        <time>2013-02-17T10:06:30Z</time>
      </trkpt>
      <trkpt lat="43.07776" lon="-0.46743">
        <ele>1300.801025</ele>
        <time>2013-02-17T10:06:44Z</time>
      </trkpt>
      <trkpt lat="43.07771" lon="-0.46729">
        <ele>1299.839844</ele>
        <time>2013-02-17T10:06:58Z</time>
      </trkpt>
      <trkpt lat="43.07769" lon="-0.4671">
        <ele>1298.397705</ele>
        <time>2013-02-17T10:07:16Z</time>
      </trkpt>
      <trkpt lat="43.07764" lon="-0.46694">
        <ele>1295.033203</ele>
        <time>2013-02-17T10:07:31Z</time>
      </trkpt>
      <trkpt lat="43.07762" lon="-0.46683">
        <ele>1291.668457</ele>
        <time>2013-02-17T10:07:47Z</time>
      </trkpt>
      <trkpt lat="43.07765" lon="-0.4668">
        <ele>1288.303955</ele>
        <time>2013-02-17T10:07:59Z</time>
      </trkpt>
      <trkpt lat="43.07763" lon="-0.4667">
        <ele>1285.419922</ele>
        <time>2013-02-17T10:08:14Z</time>
      </trkpt>
      <trkpt lat="43.07763" lon="-0.46661">
        <ele>1282.05542</ele>
        <time>2013-02-17T10:08:30Z</time>
      </trkpt>
      <trkpt lat="43.07758" lon="-0.46651">
        <ele>1279.6521</ele>
        <time>2013-02-17T10:08:47Z</time>
      </trkpt>
      <trkpt lat="43.07758" lon="-0.46647">
        <ele>1279.171387</ele>
        <time>2013-02-17T10:09:04Z</time>
      </trkpt>
      <trkpt lat="43.07757" lon="-0.4664">
        <ele>1277.249023</ele>
        <time>2013-02-17T10:09:19Z</time>
      </trkpt>
      <trkpt lat="43.07761" lon="-0.46631">
        <ele>1274.364746</ele>
        <time>2013-02-17T10:09:37Z</time>
      </trkpt>
      <trkpt lat="43.07764" lon="-0.46623">
        <ele>1271.480713</ele>
        <time>2013-02-17T10:09:50Z</time>
      </trkpt>
      <trkpt lat="43.07761" lon="-0.46609">
        <ele>1268.116211</ele>
        <time>2013-02-17T10:10:05Z</time>
      </trkpt>
      <trkpt lat="43.07757" lon="-0.46598">
        <ele>1265.232422</ele>
        <time>2013-02-17T10:10:20Z</time>
      </trkpt>
      <trkpt lat="43.07756" lon="-0.46588">
        <ele>1262.829102</ele>
        <time>2013-02-17T10:10:37Z</time>
      </trkpt>
      <trkpt lat="43.07752" lon="-0.46576">
        <ele>1261.387207</ele>
        <time>2013-02-17T10:10:55Z</time>
      </trkpt>
      <trkpt lat="43.07749" lon="-0.46575">
        <ele>1260.906494</ele>
        <time>2013-02-17T10:11:08Z</time>
      </trkpt>
      <trkpt lat="43.07743" lon="-0.46573">
        <ele>1257.541748</ele>
        <time>2013-02-17T10:11:19Z</time>
      </trkpt>
      <trkpt lat="43.07736" lon="-0.4657">
        <ele>1255.138428</ele>
        <time>2013-02-17T10:11:39Z</time>
      </trkpt>
      <trkpt lat="43.07727" lon="-0.46567">
        <ele>1252.254395</ele>
        <time>2013-02-17T10:11:52Z</time>
      </trkpt>
      <trkpt lat="43.07725" lon="-0.46567">
        <ele>1250.8125</ele>
        <time>2013-02-17T10:11:58Z</time>
      </trkpt>
      <trkpt lat="43.07722" lon="-0.46568">
        <ele>1250.332031</ele>
        <time>2013-02-17T10:12:18Z</time>
      </trkpt>
      <trkpt lat="43.0772" lon="-0.46567">
        <ele>1247.928711</ele>
        <time>2013-02-17T10:12:31Z</time>
      </trkpt>
      <trkpt lat="43.07712" lon="-0.46562">
        <ele>1244.563965</ele>
        <time>2013-02-17T10:12:45Z</time>
      </trkpt>
      <trkpt lat="43.0771" lon="-0.46556">
        <ele>1242.160645</ele>
        <time>2013-02-17T10:12:52Z</time>
      </trkpt>
      <trkpt lat="43.07704" lon="-0.46536">
        <ele>1240.238037</ele>
        <time>2013-02-17T10:13:06Z</time>
      </trkpt>
      <trkpt lat="43.07704" lon="-0.46529">
        <ele>1240.238037</ele>
        <time>2013-02-17T10:13:11Z</time>
      </trkpt>
      <trkpt lat="43.07696" lon="-0.46501">
        <ele>1237.834717</ele>
        <time>2013-02-17T10:13:33Z</time>
      </trkpt>
      <trkpt lat="43.07689" lon="-0.46495">
        <ele>1234.470215</ele>
        <time>2013-02-17T10:13:47Z</time>
      </trkpt>
      <trkpt lat="43.07688" lon="-0.46493">
        <ele>1233.989502</ele>
        <time>2013-02-17T10:13:49Z</time>
      </trkpt>
      <trkpt lat="43.07684" lon="-0.46488">
        <ele>1233.989502</ele>
        <time>2013-02-17T10:14:09Z</time>
      </trkpt>
      <trkpt lat="43.07676" lon="-0.46473">
        <ele>1233.028076</ele>
        <time>2013-02-17T10:14:24Z</time>
      </trkpt>
      <trkpt lat="43.0767" lon="-0.46464">
        <ele>1232.547607</ele>
        <time>2013-02-17T10:14:40Z</time>
      </trkpt>
      <trkpt lat="43.07652" lon="-0.46447">
        <ele>1228.702393</ele>
        <time>2013-02-17T10:15:03Z</time>
      </trkpt>
      <trkpt lat="43.07651" lon="-0.46447">
        <ele>1228.702393</ele>
        <time>2013-02-17T10:15:04Z</time>
      </trkpt>
      <trkpt lat="43.07642" lon="-0.46443">
        <ele>1225.818115</ele>
        <time>2013-02-17T10:15:15Z</time>
      </trkpt>
      <trkpt lat="43.07621" lon="-0.46429">
        <ele>1222.934326</ele>
        <time>2013-02-17T10:15:38Z</time>
      </trkpt>
      <trkpt lat="43.076" lon="-0.46411">
        <ele>1220.531006</ele>
        <time>2013-02-17T10:16:02Z</time>
      </trkpt>
      <trkpt lat="43.0758" lon="-0.46395">
        <ele>1218.608398</ele>
        <time>2013-02-17T10:16:26Z</time>
      </trkpt>
      <trkpt lat="43.07562" lon="-0.4638">
        <ele>1215.724609</ele>
        <time>2013-02-17T10:16:48Z</time>
      </trkpt>
      <trkpt lat="43.07543" lon="-0.46366">
        <ele>1213.801758</ele>
        <time>2013-02-17T10:17:11Z</time>
      </trkpt>
      <trkpt lat="43.07536" lon="-0.46365">
        <ele>1210.917725</ele>
        <time>2013-02-17T10:17:23Z</time>
      </trkpt>
      <trkpt lat="43.07528" lon="-0.46359">
        <ele>1209.956299</ele>
        <time>2013-02-17T10:17:40Z</time>
      </trkpt>
      <trkpt lat="43.07508" lon="-0.46341">
        <ele>1207.07251</ele>
        <time>2013-02-17T10:18:03Z</time>
      </trkpt>
      <trkpt lat="43.07488" lon="-0.46322">
        <ele>1205.149902</ele>
        <time>2013-02-17T10:18:26Z</time>
      </trkpt>
      <trkpt lat="43.07479" lon="-0.46315">
        <ele>1203.708008</ele>
        <time>2013-02-17T10:18:37Z</time>
      </trkpt>
      <trkpt lat="43.0747" lon="-0.46308">
        <ele>1202.265869</ele>
        <time>2013-02-17T10:18:51Z</time>
      </trkpt>
      <trkpt lat="43.07456" lon="-0.46295">
        <ele>1201.304688</ele>
        <time>2013-02-17T10:19:08Z</time>
      </trkpt>
      <trkpt lat="43.07446" lon="-0.46283">
        <ele>1202.746582</ele>
        <time>2013-02-17T10:19:23Z</time>
      </trkpt>
      <trkpt lat="43.07432" lon="-0.4627">
        <ele>1201.304688</ele>
        <time>2013-02-17T10:19:42Z</time>
      </trkpt>
      <trkpt lat="43.07414" lon="-0.46254">
        <ele>1197.940186</ele>
        <time>2013-02-17T10:20:02Z</time>
      </trkpt>
      <trkpt lat="43.07404" lon="-0.46227">
        <ele>1197.940186</ele>
        <time>2013-02-17T10:20:23Z</time>
      </trkpt>
      <trkpt lat="43.074" lon="-0.46194">
        <ele>1198.901367</ele>
        <time>2013-02-17T10:20:44Z</time>
      </trkpt>
      <trkpt lat="43.07398" lon="-0.46171">
        <ele>1198.901367</ele>
        <time>2013-02-17T10:21:01Z</time>
      </trkpt>
      <trkpt lat="43.0739" lon="-0.46148">
        <ele>1196.017578</ele>
        <time>2013-02-17T10:21:17Z</time>
      </trkpt>
      <trkpt lat="43.07386" lon="-0.46127">
        <ele>1194.094727</ele>
        <time>2013-02-17T10:21:29Z</time>
      </trkpt>
      <trkpt lat="43.0738" lon="-0.46094">
        <ele>1190.72998</ele>
        <time>2013-02-17T10:21:48Z</time>
      </trkpt>
      <trkpt lat="43.07376" lon="-0.46064">
        <ele>1189.288086</ele>
        <time>2013-02-17T10:22:06Z</time>
      </trkpt>
      <trkpt lat="43.07374" lon="-0.46053">
        <ele>1187.365479</ele>
        <time>2013-02-17T10:22:23Z</time>
      </trkpt>
      <trkpt lat="43.07369" lon="-0.46031">
        <ele>1184.962402</ele>
        <time>2013-02-17T10:22:40Z</time>
      </trkpt>
      <trkpt lat="43.07367" lon="-0.46021">
        <ele>1181.597656</ele>
        <time>2013-02-17T10:22:50Z</time>
      </trkpt>
      <trkpt lat="43.07367" lon="-0.46007">
        <ele>1178.23291</ele>
        <time>2013-02-17T10:23:05Z</time>
      </trkpt>
      <trkpt lat="43.07367" lon="-0.46">
        <ele>1176.791016</ele>
        <time>2013-02-17T10:23:11Z</time>
      </trkpt>
      <trkpt lat="43.07366" lon="-0.45997">
        <ele>1175.348877</ele>
        <time>2013-02-17T10:23:14Z</time>
      </trkpt>
      <trkpt lat="43.07365" lon="-0.45996">
        <ele>1175.82959</ele>
        <time>2013-02-17T10:23:22Z</time>
      </trkpt>
      <trkpt lat="43.07365" lon="-0.4599">
        <ele>1175.348877</ele>
        <time>2013-02-17T10:23:26Z</time>
      </trkpt>
      <trkpt lat="43.07367" lon="-0.45987">
        <ele>1175.348877</ele>
        <time>2013-02-17T10:23:29Z</time>
      </trkpt>
      <trkpt lat="43.07367" lon="-0.45979">
        <ele>1174.868408</ele>
        <time>2013-02-17T10:23:34Z</time>
      </trkpt>
      <trkpt lat="43.07369" lon="-0.45954">
        <ele>1173.426514</ele>
        <time>2013-02-17T10:23:51Z</time>
      </trkpt>
      <trkpt lat="43.07369" lon="-0.45953">
        <ele>1173.426514</ele>
        <time>2013-02-17T10:23:52Z</time>
      </trkpt>
      <trkpt lat="43.0737" lon="-0.45944">
        <ele>1172.945801</ele>
        <time>2013-02-17T10:23:58Z</time>
      </trkpt>
      <trkpt lat="43.0737" lon="-0.45934">
        <ele>1170.54248</ele>
        <time>2013-02-17T10:24:10Z</time>
      </trkpt>
      <trkpt lat="43.0737" lon="-0.45904">
        <ele>1168.619873</ele>
        <time>2013-02-17T10:24:30Z</time>
      </trkpt>
      <trkpt lat="43.07369" lon="-0.45885">
        <ele>1167.658447</ele>
        <time>2013-02-17T10:24:46Z</time>
      </trkpt>
      <trkpt lat="43.0737" lon="-0.45872">
        <ele>1166.697266</ele>
        <time>2013-02-17T10:25:00Z</time>
      </trkpt>
      <trkpt lat="43.07369" lon="-0.45842">
        <ele>1163.33252</ele>
        <time>2013-02-17T10:25:21Z</time>
      </trkpt>
      <trkpt lat="43.07368" lon="-0.45837">
        <ele>1162.371094</ele>
        <time>2013-02-17T10:25:25Z</time>
      </trkpt>
      <trkpt lat="43.07368" lon="-0.4583">
        <ele>1161.890625</ele>
        <time>2013-02-17T10:25:30Z</time>
      </trkpt>
      <trkpt lat="43.07369" lon="-0.45795">
        <ele>1159.967773</ele>
        <time>2013-02-17T10:25:53Z</time>
      </trkpt>
      <trkpt lat="43.07372" lon="-0.45761">
        <ele>1159.006592</ele>
        <time>2013-02-17T10:26:15Z</time>
      </trkpt>
      <trkpt lat="43.07373" lon="-0.45743">
        <ele>1156.603271</ele>
        <time>2013-02-17T10:26:31Z</time>
      </trkpt>
      <trkpt lat="43.07371" lon="-0.45741">
        <ele>1153.719482</ele>
        <time>2013-02-17T10:26:36Z</time>
      </trkpt>
      <trkpt lat="43.07367" lon="-0.45727">
        <ele>1153.719482</ele>
        <time>2013-02-17T10:26:47Z</time>
      </trkpt>
      <trkpt lat="43.07365" lon="-0.45718">
        <ele>1150.835449</ele>
        <time>2013-02-17T10:26:54Z</time>
      </trkpt>
      <trkpt lat="43.0736" lon="-0.45691">
        <ele>1148.432129</ele>
        <time>2013-02-17T10:27:12Z</time>
      </trkpt>
      <trkpt lat="43.07357" lon="-0.4567">
        <ele>1145.067383</ele>
        <time>2013-02-17T10:27:25Z</time>
      </trkpt>
      <trkpt lat="43.07353" lon="-0.45647">
        <ele>1141.222168</ele>
        <time>2013-02-17T10:27:41Z</time>
      </trkpt>
      <trkpt lat="43.0735" lon="-0.45615">
        <ele>1139.299561</ele>
        <time>2013-02-17T10:28:04Z</time>
      </trkpt>
      <trkpt lat="43.07347" lon="-0.45595">
        <ele>1137.376953</ele>
        <time>2013-02-17T10:28:20Z</time>
      </trkpt>
      <trkpt lat="43.07343" lon="-0.45581">
        <ele>1134.012451</ele>
        <time>2013-02-17T10:28:32Z</time>
      </trkpt>
      <trkpt lat="43.0734" lon="-0.4557">
        <ele>1131.128418</ele>
        <time>2013-02-17T10:28:40Z</time>
      </trkpt>
      <trkpt lat="43.07336" lon="-0.45553">
        <ele>1128.244385</ele>
        <time>2013-02-17T10:28:57Z</time>
      </trkpt>
      <trkpt lat="43.0733" lon="-0.45535">
        <ele>1127.283203</ele>
        <time>2013-02-17T10:29:13Z</time>
      </trkpt>
      <trkpt lat="43.07322" lon="-0.45506">
        <ele>1123.437988</ele>
        <time>2013-02-17T10:29:34Z</time>
      </trkpt>
      <trkpt lat="43.07315" lon="-0.45485">
        <ele>1120.553955</ele>
        <time>2013-02-17T10:29:51Z</time>
      </trkpt>
      <trkpt lat="43.07311" lon="-0.45462">
        <ele>1117.189453</ele>
        <time>2013-02-17T10:30:09Z</time>
      </trkpt>
      <trkpt lat="43.07309" lon="-0.45432">
        <ele>1114.785889</ele>
        <time>2013-02-17T10:30:31Z</time>
      </trkpt>
      <trkpt lat="43.07303" lon="-0.45409">
        <ele>1111.421387</ele>
        <time>2013-02-17T10:30:48Z</time>
      </trkpt>
      <trkpt lat="43.07289" lon="-0.45383">
        <ele>1110.940674</ele>
        <time>2013-02-17T10:31:09Z</time>
      </trkpt>
      <trkpt lat="43.07274" lon="-0.45357">
        <ele>1111.421387</ele>
        <time>2013-02-17T10:31:31Z</time>
      </trkpt>
      <trkpt lat="43.07264" lon="-0.45336">
        <ele>1111.9021</ele>
        <time>2013-02-17T10:31:48Z</time>
      </trkpt>
      <trkpt lat="43.07245" lon="-0.45292">
        <ele>1110.940674</ele>
        <time>2013-02-17T10:32:17Z</time>
      </trkpt>
      <trkpt lat="43.07237" lon="-0.45268">
        <ele>1108.537354</ele>
        <time>2013-02-17T10:32:35Z</time>
      </trkpt>
      <trkpt lat="43.07228" lon="-0.45234">
        <ele>1108.056885</ele>
        <time>2013-02-17T10:32:57Z</time>
      </trkpt>
      <trkpt lat="43.0722" lon="-0.45213">
        <ele>1106.614746</ele>
        <time>2013-02-17T10:33:16Z</time>
      </trkpt>
      <trkpt lat="43.07213" lon="-0.45191">
        <ele>1103.250244</ele>
        <time>2013-02-17T10:33:32Z</time>
      </trkpt>
      <trkpt lat="43.07212" lon="-0.45189">
        <ele>1101.80835</ele>
        <time>2013-02-17T10:33:34Z</time>
      </trkpt>
      <trkpt lat="43.07206" lon="-0.45167">
        <ele>1098.443359</ele>
        <time>2013-02-17T10:33:49Z</time>
      </trkpt>
      <trkpt lat="43.07204" lon="-0.45146">
        <ele>1096.520996</ele>
        <time>2013-02-17T10:34:06Z</time>
      </trkpt>
      <trkpt lat="43.07202" lon="-0.4514">
        <ele>1096.040283</ele>
        <time>2013-02-17T10:34:12Z</time>
      </trkpt>
      <trkpt lat="43.07198" lon="-0.45103">
        <ele>1093.636963</ele>
        <time>2013-02-17T10:34:35Z</time>
      </trkpt>
      <trkpt lat="43.07198" lon="-0.45075">
        <ele>1092.195068</ele>
        <time>2013-02-17T10:34:54Z</time>
      </trkpt>
      <trkpt lat="43.07201" lon="-0.45054">
        <ele>1091.233643</ele>
        <time>2013-02-17T10:35:12Z</time>
      </trkpt>
      <trkpt lat="43.072" lon="-0.4504">
        <ele>1087.388428</ele>
        <time>2013-02-17T10:35:24Z</time>
      </trkpt>
      <trkpt lat="43.07198" lon="-0.45028">
        <ele>1085.46582</ele>
        <time>2013-02-17T10:35:34Z</time>
      </trkpt>
      <trkpt lat="43.07194" lon="-0.45022">
        <ele>1083.542969</ele>
        <time>2013-02-17T10:35:48Z</time>
      </trkpt>
      <trkpt lat="43.07191" lon="-0.45019">
        <ele>1083.062256</ele>
        <time>2013-02-17T10:36:13Z</time>
      </trkpt>
      <trkpt lat="43.07192" lon="-0.4502">
        <ele>1083.062256</ele>
        <time>2013-02-17T10:38:15Z</time>
      </trkpt>
      <trkpt lat="43.07188" lon="-0.45011">
        <ele>1081.620361</ele>
        <time>2013-02-17T10:38:34Z</time>
      </trkpt>
      <trkpt lat="43.07181" lon="-0.44999">
        <ele>1078.736572</ele>
        <time>2013-02-17T10:38:49Z</time>
      </trkpt>
      <trkpt lat="43.07179" lon="-0.44996">
        <ele>1078.255859</ele>
        <time>2013-02-17T10:38:53Z</time>
      </trkpt>
      <trkpt lat="43.07168" lon="-0.44976">
        <ele>1074.891357</ele>
        <time>2013-02-17T10:39:11Z</time>
      </trkpt>
      <trkpt lat="43.07161" lon="-0.44969">
        <ele>1072.007324</ele>
        <time>2013-02-17T10:39:21Z</time>
      </trkpt>
      <trkpt lat="43.07158" lon="-0.44965">
        <ele>1070.56543</ele>
        <time>2013-02-17T10:39:25Z</time>
      </trkpt>
      <trkpt lat="43.07148" lon="-0.44952">
        <ele>1069.604248</ele>
        <time>2013-02-17T10:39:43Z</time>
      </trkpt>
      <trkpt lat="43.07139" lon="-0.4494">
        <ele>1065.758789</ele>
        <time>2013-02-17T10:39:57Z</time>
      </trkpt>
      <trkpt lat="43.07132" lon="-0.44932">
        <ele>1064.31665</ele>
        <time>2013-02-17T10:40:12Z</time>
      </trkpt>
      <trkpt lat="43.07126" lon="-0.44927">
        <ele>1060.952148</ele>
        <time>2013-02-17T10:40:22Z</time>
      </trkpt>
      <trkpt lat="43.07119" lon="-0.44921">
        <ele>1057.587646</ele>
        <time>2013-02-17T10:40:34Z</time>
      </trkpt>
      <trkpt lat="43.07116" lon="-0.44917">
        <ele>1056.626221</ele>
        <time>2013-02-17T10:40:37Z</time>
      </trkpt>
      <trkpt lat="43.07112" lon="-0.44908">
        <ele>1055.184326</ele>
        <time>2013-02-17T10:40:55Z</time>
      </trkpt>
      <trkpt lat="43.07111" lon="-0.44903">
        <ele>1054.703613</ele>
        <time>2013-02-17T10:41:00Z</time>
      </trkpt>
      <trkpt lat="43.07105" lon="-0.44883">
        <ele>1054.223145</ele>
        <time>2013-02-17T10:41:20Z</time>
      </trkpt>
      <trkpt lat="43.07104" lon="-0.44876">
        <ele>1053.742432</ele>
        <time>2013-02-17T10:41:36Z</time>
      </trkpt>
      <trkpt lat="43.07107" lon="-0.44866">
        <ele>1056.145508</ele>
        <time>2013-02-17T10:41:54Z</time>
      </trkpt>
      <trkpt lat="43.07106" lon="-0.44864">
        <ele>1056.145508</ele>
        <time>2013-02-17T10:42:14Z</time>
      </trkpt>
      <trkpt lat="43.07107" lon="-0.44863">
        <ele>1056.626221</ele>
        <time>2013-02-17T10:43:00Z</time>
      </trkpt>
      <trkpt lat="43.07107" lon="-0.44863">
        <ele>1056.626221</ele>
        <time>2013-02-17T10:43:49Z</time>
      </trkpt>
      <trkpt lat="43.0711" lon="-0.44863">
        <ele>1057.106934</ele>
        <time>2013-02-17T10:44:04Z</time>
      </trkpt>
      <trkpt lat="43.0711" lon="-0.44864">
        <ele>1057.106934</ele>
        <time>2013-02-17T10:44:54Z</time>
      </trkpt>
      <trkpt lat="43.0711" lon="-0.44863">
        <ele>1057.587646</ele>
        <time>2013-02-17T10:45:26Z</time>
      </trkpt>
      <trkpt lat="43.07109" lon="-0.44863">
        <ele>1056.145508</ele>
        <time>2013-02-17T11:13:02Z</time>
      </trkpt>
      <trkpt lat="43.07108" lon="-0.44864">
        <ele>1056.626221</ele>
        <time>2013-02-17T11:14:25Z</time>
      </trkpt>
      <trkpt lat="43.07107" lon="-0.44864">
        <ele>1057.587646</ele>
        <time>2013-02-17T11:15:16Z</time>
      </trkpt>
      <trkpt lat="43.0711" lon="-0.44864">
        <ele>1057.106934</ele>
        <time>2013-02-17T11:16:27Z</time>
      </trkpt>
      <trkpt lat="43.0711" lon="-0.44864">
        <ele>1059.510254</ele>
        <time>2013-02-17T11:17:17Z</time>
      </trkpt>
      <trkpt lat="43.07111" lon="-0.44865">
        <ele>1059.029541</ele>
        <time>2013-02-17T11:18:05Z</time>
      </trkpt>
      <trkpt lat="43.07109" lon="-0.44866">
        <ele>1060.471436</ele>
        <time>2013-02-17T11:22:58Z</time>
      </trkpt>
      <trkpt lat="43.07109" lon="-0.44867">
        <ele>1059.990723</ele>
        <time>2013-02-17T11:23:31Z</time>
      </trkpt>
      <trkpt lat="43.07108" lon="-0.44868">
        <ele>1059.510254</ele>
        <time>2013-02-17T11:23:57Z</time>
      </trkpt>
      <trkpt lat="43.07108" lon="-0.44868">
        <ele>1059.510254</ele>
        <time>2013-02-17T11:24:04Z</time>
      </trkpt>
      <trkpt lat="43.07105" lon="-0.44872">
        <ele>1057.106934</ele>
        <time>2013-02-17T11:24:21Z</time>
      </trkpt>
      <trkpt lat="43.07103" lon="-0.44877">
        <ele>1056.626221</ele>
        <time>2013-02-17T11:24:36Z</time>
      </trkpt>
      <trkpt lat="43.07102" lon="-0.44878">
        <ele>1055.184326</ele>
        <time>2013-02-17T11:24:55Z</time>
      </trkpt>
      <trkpt lat="43.07102" lon="-0.44878">
        <ele>1054.223145</ele>
        <time>2013-02-17T11:25:19Z</time>
      </trkpt>
      <trkpt lat="43.07103" lon="-0.44882">
        <ele>1054.223145</ele>
        <time>2013-02-17T11:25:44Z</time>
      </trkpt>
      <trkpt lat="43.07105" lon="-0.4488">
        <ele>1056.145508</ele>
        <time>2013-02-17T11:26:13Z</time>
      </trkpt>
      <trkpt lat="43.07101" lon="-0.44868">
        <ele>1055.665039</ele>
        <time>2013-02-17T11:26:28Z</time>
      </trkpt>
      <trkpt lat="43.07095" lon="-0.44853">
        <ele>1053.261719</ele>
        <time>2013-02-17T11:26:46Z</time>
      </trkpt>
      <trkpt lat="43.07086" lon="-0.44845">
        <ele>1050.377686</ele>
        <time>2013-02-17T11:27:03Z</time>
      </trkpt>
      <trkpt lat="43.07078" lon="-0.44841">
        <ele>1047.012939</ele>
        <time>2013-02-17T11:27:14Z</time>
      </trkpt>
      <trkpt lat="43.07068" lon="-0.44826">
        <ele>1044.12915</ele>
        <time>2013-02-17T11:27:31Z</time>
      </trkpt>
      <trkpt lat="43.07058" lon="-0.44815">
        <ele>1041.245117</ele>
        <time>2013-02-17T11:27:48Z</time>
      </trkpt>
      <trkpt lat="43.0705" lon="-0.44806">
        <ele>1038.361328</ele>
        <time>2013-02-17T11:28:02Z</time>
      </trkpt>
      <trkpt lat="43.07046" lon="-0.44802">
        <ele>1035.957764</ele>
        <time>2013-02-17T11:28:08Z</time>
      </trkpt>
      <trkpt lat="43.07035" lon="-0.44788">
        <ele>1033.07373</ele>
        <time>2013-02-17T11:28:25Z</time>
      </trkpt>
      <trkpt lat="43.07026" lon="-0.4478">
        <ele>1029.709229</ele>
        <time>2013-02-17T11:28:37Z</time>
      </trkpt>
      <trkpt lat="43.07022" lon="-0.44777">
        <ele>1028.748047</ele>
        <time>2013-02-17T11:28:42Z</time>
      </trkpt>
      <trkpt lat="43.07009" lon="-0.44771">
        <ele>1026.344727</ele>
        <time>2013-02-17T11:28:57Z</time>
      </trkpt>
      <trkpt lat="43.07006" lon="-0.44765">
        <ele>1024.422119</ele>
        <time>2013-02-17T11:29:04Z</time>
      </trkpt>
      <trkpt lat="43.07001" lon="-0.4475">
        <ele>1021.057617</ele>
        <time>2013-02-17T11:29:15Z</time>
      </trkpt>
      <trkpt lat="43.06998" lon="-0.44743">
        <ele>1019.134766</ele>
        <time>2013-02-17T11:29:21Z</time>
      </trkpt>
      <trkpt lat="43.06991" lon="-0.44732">
        <ele>1016.250732</ele>
        <time>2013-02-17T11:29:38Z</time>
      </trkpt>
      <trkpt lat="43.06989" lon="-0.44731">
        <ele>1014.808838</ele>
        <time>2013-02-17T11:29:42Z</time>
      </trkpt>
      <trkpt lat="43.06978" lon="-0.44726">
        <ele>1011.925049</ele>
        <time>2013-02-17T11:29:55Z</time>
      </trkpt>
      <trkpt lat="43.06973" lon="-0.44715">
        <ele>1010.48291</ele>
        <time>2013-02-17T11:30:04Z</time>
      </trkpt>
      <trkpt lat="43.06966" lon="-0.44701">
        <ele>1007.118408</ele>
        <time>2013-02-17T11:30:16Z</time>
      </trkpt>
      <trkpt lat="43.0696" lon="-0.44687">
        <ele>1003.753662</ele>
        <time>2013-02-17T11:30:28Z</time>
      </trkpt>
      <trkpt lat="43.06949" lon="-0.44677">
        <ele>1000.869629</ele>
        <time>2013-02-17T11:30:42Z</time>
      </trkpt>
      <trkpt lat="43.06943" lon="-0.44664">
        <ele>998.947021</ele>
        <time>2013-02-17T11:30:54Z</time>
      </trkpt>
      <trkpt lat="43.06938" lon="-0.44654">
        <ele>995.101807</ele>
        <time>2013-02-17T11:31:05Z</time>
      </trkpt>
      <trkpt lat="43.06932" lon="-0.44642">
        <ele>992.218018</ele>
        <time>2013-02-17T11:31:18Z</time>
      </trkpt>
      <trkpt lat="43.06927" lon="-0.44637">
        <ele>991.256592</ele>
        <time>2013-02-17T11:31:26Z</time>
      </trkpt>
      <trkpt lat="43.06924" lon="-0.44634">
        <ele>989.814697</ele>
        <time>2013-02-17T11:31:30Z</time>
      </trkpt>
      <trkpt lat="43.06914" lon="-0.44618">
        <ele>986.449951</ele>
        <time>2013-02-17T11:31:45Z</time>
      </trkpt>
      <trkpt lat="43.06906" lon="-0.44603">
        <ele>983.085205</ele>
        <time>2013-02-17T11:31:58Z</time>
      </trkpt>
      <trkpt lat="43.069" lon="-0.44592">
        <ele>981.162842</ele>
        <time>2013-02-17T11:32:07Z</time>
      </trkpt>
      <trkpt lat="43.06896" lon="-0.44587">
        <ele>977.798096</ele>
        <time>2013-02-17T11:32:12Z</time>
      </trkpt>
      <trkpt lat="43.06894" lon="-0.44585">
        <ele>976.836914</ele>
        <time>2013-02-17T11:32:14Z</time>
      </trkpt>
      <trkpt lat="43.06884" lon="-0.44575">
        <ele>973.952881</ele>
        <time>2013-02-17T11:32:26Z</time>
      </trkpt>
      <trkpt lat="43.06878" lon="-0.44571">
        <ele>972.991699</ele>
        <time>2013-02-17T11:32:32Z</time>
      </trkpt>
      <trkpt lat="43.0687" lon="-0.44553">
        <ele>970.107422</ele>
        <time>2013-02-17T11:32:47Z</time>
      </trkpt>
      <trkpt lat="43.06859" lon="-0.44536">
        <ele>967.223633</ele>
        <time>2013-02-17T11:33:02Z</time>
      </trkpt>
      <trkpt lat="43.06833" lon="-0.44529">
        <ele>966.74292</ele>
        <time>2013-02-17T11:33:23Z</time>
      </trkpt>
      <trkpt lat="43.06822" lon="-0.44528">
        <ele>965.781738</ele>
        <time>2013-02-17T11:33:37Z</time>
      </trkpt>
      <trkpt lat="43.06807" lon="-0.44529">
        <ele>965.781738</ele>
        <time>2013-02-17T11:33:53Z</time>
      </trkpt>
      <trkpt lat="43.06791" lon="-0.44541">
        <ele>968.184814</ele>
        <time>2013-02-17T11:34:10Z</time>
      </trkpt>
      <trkpt lat="43.0678" lon="-0.44559">
        <ele>971.068848</ele>
        <time>2013-02-17T11:34:29Z</time>
      </trkpt>
      <trkpt lat="43.06772" lon="-0.44575">
        <ele>972.030273</ele>
        <time>2013-02-17T11:34:44Z</time>
      </trkpt>
      <trkpt lat="43.06765" lon="-0.44589">
        <ele>973.952881</ele>
        <time>2013-02-17T11:35:04Z</time>
      </trkpt>
      <trkpt lat="43.06752" lon="-0.44591">
        <ele>974.914307</ele>
        <time>2013-02-17T11:35:21Z</time>
      </trkpt>
      <trkpt lat="43.0675" lon="-0.44592">
        <ele>974.914307</ele>
        <time>2013-02-17T11:35:42Z</time>
      </trkpt>
      <trkpt lat="43.06748" lon="-0.446">
        <ele>974.914307</ele>
        <time>2013-02-17T11:36:02Z</time>
      </trkpt>
      <trkpt lat="43.06742" lon="-0.44622">
        <ele>974.914307</ele>
        <time>2013-02-17T11:36:20Z</time>
      </trkpt>
      <trkpt lat="43.06741" lon="-0.44645">
        <ele>974.914307</ele>
        <time>2013-02-17T11:36:39Z</time>
      </trkpt>
      <trkpt lat="43.06748" lon="-0.44655">
        <ele>974.433594</ele>
        <time>2013-02-17T11:36:53Z</time>
      </trkpt>
      <trkpt lat="43.06748" lon="-0.44657">
        <ele>973.952881</ele>
        <time>2013-02-17T11:36:55Z</time>
      </trkpt>
      <trkpt lat="43.06747" lon="-0.44696">
        <ele>973.952881</ele>
        <time>2013-02-17T11:37:19Z</time>
      </trkpt>
      <trkpt lat="43.06745" lon="-0.44726">
        <ele>972.030273</ele>
        <time>2013-02-17T11:37:41Z</time>
      </trkpt>
      <trkpt lat="43.06745" lon="-0.44731">
        <ele>972.030273</ele>
        <time>2013-02-17T11:37:58Z</time>
      </trkpt>
      <trkpt lat="43.06751" lon="-0.44754">
        <ele>972.030273</ele>
        <time>2013-02-17T11:38:16Z</time>
      </trkpt>
      <trkpt lat="43.06755" lon="-0.44782">
        <ele>968.665527</ele>
        <time>2013-02-17T11:38:35Z</time>
      </trkpt>
      <trkpt lat="43.06756" lon="-0.44809">
        <ele>967.223633</ele>
        <time>2013-02-17T11:38:54Z</time>
      </trkpt>
      <trkpt lat="43.06755" lon="-0.44817">
        <ele>968.184814</ele>
        <time>2013-02-17T11:39:14Z</time>
      </trkpt>
      <trkpt lat="43.06753" lon="-0.44824">
        <ele>968.184814</ele>
        <time>2013-02-17T11:39:30Z</time>
      </trkpt>
      <trkpt lat="43.0675" lon="-0.44835">
        <ele>966.74292</ele>
        <time>2013-02-17T11:39:43Z</time>
      </trkpt>
      <trkpt lat="43.06753" lon="-0.44869">
        <ele>963.858887</ele>
        <time>2013-02-17T11:40:05Z</time>
      </trkpt>
      <trkpt lat="43.0676" lon="-0.44897">
        <ele>963.858887</ele>
        <time>2013-02-17T11:40:25Z</time>
      </trkpt>
      <trkpt lat="43.06759" lon="-0.44908">
        <ele>961.455811</ele>
        <time>2013-02-17T11:40:33Z</time>
      </trkpt>
      <trkpt lat="43.06759" lon="-0.44922">
        <ele>960.013672</ele>
        <time>2013-02-17T11:40:50Z</time>
      </trkpt>
      <trkpt lat="43.06761" lon="-0.44923">
        <ele>959.533203</ele>
        <time>2013-02-17T11:41:21Z</time>
      </trkpt>
      <trkpt lat="43.06761" lon="-0.44934">
        <ele>959.533203</ele>
        <time>2013-02-17T11:41:39Z</time>
      </trkpt>
      <trkpt lat="43.06761" lon="-0.44948">
        <ele>958.571777</ele>
        <time>2013-02-17T11:41:59Z</time>
      </trkpt>
      <trkpt lat="43.06758" lon="-0.4497">
        <ele>958.091309</ele>
        <time>2013-02-17T11:42:19Z</time>
      </trkpt>
      <trkpt lat="43.06753" lon="-0.44999">
        <ele>955.207031</ele>
        <time>2013-02-17T11:42:40Z</time>
      </trkpt>
      <trkpt lat="43.06761" lon="-0.45016">
        <ele>954.24585</ele>
        <time>2013-02-17T11:42:57Z</time>
      </trkpt>
      <trkpt lat="43.06769" lon="-0.45035">
        <ele>951.842529</ele>
        <time>2013-02-17T11:43:17Z</time>
      </trkpt>
      <trkpt lat="43.06772" lon="-0.45044">
        <ele>948.477783</ele>
        <time>2013-02-17T11:43:27Z</time>
      </trkpt>
      <trkpt lat="43.06781" lon="-0.45057">
        <ele>946.55542</ele>
        <time>2013-02-17T11:43:46Z</time>
      </trkpt>
      <trkpt lat="43.0679" lon="-0.45062">
        <ele>944.1521</ele>
        <time>2013-02-17T11:44:01Z</time>
      </trkpt>
      <trkpt lat="43.06795" lon="-0.45057">
        <ele>943.190674</ele>
        <time>2013-02-17T11:44:09Z</time>
      </trkpt>
      <trkpt lat="43.06808" lon="-0.45057">
        <ele>942.229492</ele>
        <time>2013-02-17T11:44:27Z</time>
      </trkpt>
      <trkpt lat="43.06816" lon="-0.45065">
        <ele>943.190674</ele>
        <time>2013-02-17T11:44:47Z</time>
      </trkpt>
      <trkpt lat="43.06827" lon="-0.45068">
        <ele>943.190674</ele>
        <time>2013-02-17T11:45:01Z</time>
      </trkpt>
      <trkpt lat="43.06831" lon="-0.45062">
        <ele>946.074707</ele>
        <time>2013-02-17T11:45:17Z</time>
      </trkpt>
      <trkpt lat="43.06841" lon="-0.45063">
        <ele>947.516602</ele>
        <time>2013-02-17T11:45:31Z</time>
      </trkpt>
      <trkpt lat="43.0685" lon="-0.45059">
        <ele>949.919922</ele>
        <time>2013-02-17T11:45:46Z</time>
      </trkpt>
      <trkpt lat="43.06859" lon="-0.45055">
        <ele>952.803711</ele>
        <time>2013-02-17T11:46:01Z</time>
      </trkpt>
      <trkpt lat="43.06867" lon="-0.45052">
        <ele>951.361816</ele>
        <time>2013-02-17T11:46:32Z</time>
      </trkpt>
      <trkpt lat="43.06865" lon="-0.45047">
        <ele>954.726318</ele>
        <time>2013-02-17T11:46:55Z</time>
      </trkpt>
      <trkpt lat="43.0687" lon="-0.45046">
        <ele>955.687744</ele>
        <time>2013-02-17T11:47:23Z</time>
      </trkpt>
      <trkpt lat="43.06876" lon="-0.4505">
        <ele>957.610596</ele>
        <time>2013-02-17T11:48:00Z</time>
      </trkpt>
      <trkpt lat="43.0688" lon="-0.45053">
        <ele>956.168457</ele>
        <time>2013-02-17T11:48:25Z</time>
      </trkpt>
      <trkpt lat="43.06876" lon="-0.45053">
        <ele>955.687744</ele>
        <time>2013-02-17T11:49:10Z</time>
      </trkpt>
      <trkpt lat="43.06882" lon="-0.45052">
        <ele>957.129883</ele>
        <time>2013-02-17T11:49:26Z</time>
      </trkpt>
      <trkpt lat="43.06888" lon="-0.45054">
        <ele>957.129883</ele>
        <time>2013-02-17T11:49:50Z</time>
      </trkpt>
      <trkpt lat="43.06887" lon="-0.4506">
        <ele>957.129883</ele>
        <time>2013-02-17T11:50:12Z</time>
      </trkpt>
      <trkpt lat="43.06891" lon="-0.45063">
        <ele>955.207031</ele>
        <time>2013-02-17T11:50:33Z</time>
      </trkpt>
      <trkpt lat="43.06891" lon="-0.45066">
        <ele>956.168457</ele>
        <time>2013-02-17T11:50:50Z</time>
      </trkpt>
      <trkpt lat="43.06876" lon="-0.45071">
        <ele>954.24585</ele>
        <time>2013-02-17T11:51:24Z</time>
      </trkpt>
      <trkpt lat="43.06871" lon="-0.45074">
        <ele>953.765137</ele>
        <time>2013-02-17T11:51:39Z</time>
      </trkpt>
      <trkpt lat="43.06865" lon="-0.45076">
        <ele>952.322998</ele>
        <time>2013-02-17T11:51:50Z</time>
      </trkpt>
      <trkpt lat="43.06859" lon="-0.45083">
        <ele>951.361816</ele>
        <time>2013-02-17T11:52:04Z</time>
      </trkpt>
      <trkpt lat="43.06855" lon="-0.45089">
        <ele>950.400635</ele>
        <time>2013-02-17T11:52:15Z</time>
      </trkpt>
      <trkpt lat="43.06849" lon="-0.45091">
        <ele>949.919922</ele>
        <time>2013-02-17T11:52:28Z</time>
      </trkpt>
      <trkpt lat="43.06844" lon="-0.45097">
        <ele>949.919922</ele>
        <time>2013-02-17T11:52:41Z</time>
      </trkpt>
      <trkpt lat="43.06836" lon="-0.451">
        <ele>947.997314</ele>
        <time>2013-02-17T11:53:00Z</time>
      </trkpt>
      <trkpt lat="43.06837" lon="-0.45106">
        <ele>946.074707</ele>
        <time>2013-02-17T11:53:19Z</time>
      </trkpt>
      <trkpt lat="43.06833" lon="-0.45109">
        <ele>944.632568</ele>
        <time>2013-02-17T11:53:39Z</time>
      </trkpt>
      <trkpt lat="43.06828" lon="-0.4511">
        <ele>944.1521</ele>
        <time>2013-02-17T11:53:57Z</time>
      </trkpt>
      <trkpt lat="43.06827" lon="-0.45118">
        <ele>945.113281</ele>
        <time>2013-02-17T11:54:19Z</time>
      </trkpt>
      <trkpt lat="43.06827" lon="-0.45122">
        <ele>945.593994</ele>
        <time>2013-02-17T11:54:38Z</time>
      </trkpt>
      <trkpt lat="43.06825" lon="-0.45125">
        <ele>945.593994</ele>
        <time>2013-02-17T11:54:42Z</time>
      </trkpt>
      <trkpt lat="43.06823" lon="-0.45134">
        <ele>947.516602</ele>
        <time>2013-02-17T11:54:53Z</time>
      </trkpt>
      <trkpt lat="43.06812" lon="-0.4514">
        <ele>947.516602</ele>
        <time>2013-02-17T11:55:08Z</time>
      </trkpt>
      <trkpt lat="43.06801" lon="-0.45144">
        <ele>947.035889</ele>
        <time>2013-02-17T11:55:21Z</time>
      </trkpt>
      <trkpt lat="43.06782" lon="-0.45155">
        <ele>947.516602</ele>
        <time>2013-02-17T11:55:43Z</time>
      </trkpt>
      <trkpt lat="43.06777" lon="-0.45159">
        <ele>946.55542</ele>
        <time>2013-02-17T11:55:56Z</time>
      </trkpt>
      <trkpt lat="43.06765" lon="-0.45171">
        <ele>946.55542</ele>
        <time>2013-02-17T11:56:12Z</time>
      </trkpt>
      <trkpt lat="43.06752" lon="-0.45186">
        <ele>943.671387</ele>
        <time>2013-02-17T11:56:34Z</time>
      </trkpt>
      <trkpt lat="43.06747" lon="-0.45191">
        <ele>941.268066</ele>
        <time>2013-02-17T11:56:54Z</time>
      </trkpt>
      <trkpt lat="43.0674" lon="-0.45196">
        <ele>938.384033</ele>
        <time>2013-02-17T11:57:12Z</time>
      </trkpt>
      <trkpt lat="43.06735" lon="-0.45202">
        <ele>937.90332</ele>
        <time>2013-02-17T11:57:30Z</time>
      </trkpt>
      <trkpt lat="43.0673" lon="-0.4521">
        <ele>935.019531</ele>
        <time>2013-02-17T11:57:47Z</time>
      </trkpt>
      <trkpt lat="43.06724" lon="-0.45219">
        <ele>931.654785</ele>
        <time>2013-02-17T11:58:03Z</time>
      </trkpt>
      <trkpt lat="43.06719" lon="-0.45223">
        <ele>929.732178</ele>
        <time>2013-02-17T11:58:17Z</time>
      </trkpt>
      <trkpt lat="43.06715" lon="-0.45226">
        <ele>928.290283</ele>
        <time>2013-02-17T11:58:41Z</time>
      </trkpt>
      <trkpt lat="43.06709" lon="-0.45234">
        <ele>925.40625</ele>
        <time>2013-02-17T11:58:59Z</time>
      </trkpt>
      <trkpt lat="43.06702" lon="-0.45246">
        <ele>922.041504</ele>
        <time>2013-02-17T11:59:16Z</time>
      </trkpt>
      <trkpt lat="43.06695" lon="-0.45257">
        <ele>919.157715</ele>
        <time>2013-02-17T11:59:34Z</time>
      </trkpt>
      <trkpt lat="43.06689" lon="-0.4527">
        <ele>915.793213</ele>
        <time>2013-02-17T11:59:50Z</time>
      </trkpt>
      <trkpt lat="43.06683" lon="-0.45279">
        <ele>912.428467</ele>
        <time>2013-02-17T12:00:00Z</time>
      </trkpt>
      <trkpt lat="43.0668" lon="-0.45283">
        <ele>910.505859</ele>
        <time>2013-02-17T12:00:05Z</time>
      </trkpt>
      <trkpt lat="43.0667" lon="-0.45298">
        <ele>908.102783</ele>
        <time>2013-02-17T12:00:23Z</time>
      </trkpt>
      <trkpt lat="43.06663" lon="-0.4531">
        <ele>904.737793</ele>
        <time>2013-02-17T12:00:36Z</time>
      </trkpt>
      <trkpt lat="43.06659" lon="-0.45316">
        <ele>903.295898</ele>
        <time>2013-02-17T12:00:45Z</time>
      </trkpt>
      <trkpt lat="43.06653" lon="-0.45322">
        <ele>902.815186</ele>
        <time>2013-02-17T12:00:54Z</time>
      </trkpt>
      <trkpt lat="43.06651" lon="-0.45325">
        <ele>901.854004</ele>
        <time>2013-02-17T12:00:57Z</time>
      </trkpt>
      <trkpt lat="43.06638" lon="-0.45336">
        <ele>898.489258</ele>
        <time>2013-02-17T12:01:14Z</time>
      </trkpt>
      <trkpt lat="43.06631" lon="-0.45352">
        <ele>896.566895</ele>
        <time>2013-02-17T12:01:30Z</time>
      </trkpt>
      <trkpt lat="43.06624" lon="-0.45375">
        <ele>893.202148</ele>
        <time>2013-02-17T12:01:49Z</time>
      </trkpt>
      <trkpt lat="43.06616" lon="-0.454">
        <ele>890.318115</ele>
        <time>2013-02-17T12:02:10Z</time>
      </trkpt>
      <trkpt lat="43.06612" lon="-0.45402">
        <ele>889.356689</ele>
        <time>2013-02-17T12:02:25Z</time>
      </trkpt>
      <trkpt lat="43.06613" lon="-0.45404">
        <ele>890.318115</ele>
        <time>2013-02-17T12:02:29Z</time>
      </trkpt>
      <trkpt lat="43.06618" lon="-0.45411">
        <ele>889.837402</ele>
        <time>2013-02-17T12:02:36Z</time>
      </trkpt>
      <trkpt lat="43.06624" lon="-0.45435">
        <ele>887.914795</ele>
        <time>2013-02-17T12:02:55Z</time>
      </trkpt>
      <trkpt lat="43.06625" lon="-0.45468">
        <ele>887.434082</ele>
        <time>2013-02-17T12:03:18Z</time>
      </trkpt>
      <trkpt lat="43.06627" lon="-0.45501">
        <ele>888.395508</ele>
        <time>2013-02-17T12:03:41Z</time>
      </trkpt>
      <trkpt lat="43.06626" lon="-0.45508">
        <ele>888.395508</ele>
        <time>2013-02-17T12:03:59Z</time>
      </trkpt>
      <trkpt lat="43.06625" lon="-0.45521">
        <ele>887.914795</ele>
        <time>2013-02-17T12:04:13Z</time>
      </trkpt>
      <trkpt lat="43.06622" lon="-0.45532">
        <ele>888.395508</ele>
        <time>2013-02-17T12:04:30Z</time>
      </trkpt>
      <trkpt lat="43.06621" lon="-0.45542">
        <ele>887.914795</ele>
        <time>2013-02-17T12:04:38Z</time>
      </trkpt>
      <trkpt lat="43.06611" lon="-0.45569">
        <ele>886.953369</ele>
        <time>2013-02-17T12:05:01Z</time>
      </trkpt>
      <trkpt lat="43.06605" lon="-0.45585">
        <ele>885.031006</ele>
        <time>2013-02-17T12:05:17Z</time>
      </trkpt>
      <trkpt lat="43.06598" lon="-0.45601">
        <ele>883.108154</ele>
        <time>2013-02-17T12:05:32Z</time>
      </trkpt>
      <trkpt lat="43.06591" lon="-0.4562">
        <ele>880.705078</ele>
        <time>2013-02-17T12:05:51Z</time>
      </trkpt>
      <trkpt lat="43.06578" lon="-0.45644">
        <ele>879.262939</ele>
        <time>2013-02-17T12:06:13Z</time>
      </trkpt>
      <trkpt lat="43.06563" lon="-0.45668">
        <ele>876.859863</ele>
        <time>2013-02-17T12:06:35Z</time>
      </trkpt>
      <trkpt lat="43.0655" lon="-0.45692">
        <ele>875.41748</ele>
        <time>2013-02-17T12:06:56Z</time>
      </trkpt>
      <trkpt lat="43.06537" lon="-0.45714">
        <ele>874.456299</ele>
        <time>2013-02-17T12:07:16Z</time>
      </trkpt>
      <trkpt lat="43.06522" lon="-0.45741">
        <ele>873.495117</ele>
        <time>2013-02-17T12:07:40Z</time>
      </trkpt>
      <trkpt lat="43.06515" lon="-0.4576">
        <ele>872.052979</ele>
        <time>2013-02-17T12:07:57Z</time>
      </trkpt>
      <trkpt lat="43.06509" lon="-0.45779">
        <ele>869.649902</ele>
        <time>2013-02-17T12:08:16Z</time>
      </trkpt>
      <trkpt lat="43.06507" lon="-0.45779">
        <ele>870.130371</ele>
        <time>2013-02-17T12:08:18Z</time>
      </trkpt>
      <trkpt lat="43.06493" lon="-0.45785">
        <ele>867.246582</ele>
        <time>2013-02-17T12:08:34Z</time>
      </trkpt>
      <trkpt lat="43.06479" lon="-0.45785">
        <ele>864.362549</ele>
        <time>2013-02-17T12:08:53Z</time>
      </trkpt>
      <trkpt lat="43.06466" lon="-0.4578">
        <ele>861.959473</ele>
        <time>2013-02-17T12:09:10Z</time>
      </trkpt>
      <trkpt lat="43.06453" lon="-0.45773">
        <ele>859.555908</ele>
        <time>2013-02-17T12:09:27Z</time>
      </trkpt>
      <trkpt lat="43.06434" lon="-0.4577">
        <ele>857.152588</ele>
        <time>2013-02-17T12:09:47Z</time>
      </trkpt>
      <trkpt lat="43.06417" lon="-0.45768">
        <ele>853.788086</ele>
        <time>2013-02-17T12:10:05Z</time>
      </trkpt>
      <trkpt lat="43.06398" lon="-0.45764">
        <ele>852.345947</ele>
        <time>2013-02-17T12:10:27Z</time>
      </trkpt>
      <trkpt lat="43.0639" lon="-0.45762">
        <ele>850.904053</ele>
        <time>2013-02-17T12:10:50Z</time>
      </trkpt>
      <trkpt lat="43.06376" lon="-0.45761">
        <ele>847.539551</ele>
        <time>2013-02-17T12:11:08Z</time>
      </trkpt>
      <trkpt lat="43.06362" lon="-0.45763">
        <ele>846.097656</ele>
        <time>2013-02-17T12:11:24Z</time>
      </trkpt>
      <trkpt lat="43.06349" lon="-0.45763">
        <ele>843.213379</ele>
        <time>2013-02-17T12:11:42Z</time>
      </trkpt>
      <trkpt lat="43.0635" lon="-0.45761">
        <ele>843.694092</ele>
        <time>2013-02-17T12:12:03Z</time>
      </trkpt>
      <trkpt lat="43.06338" lon="-0.4577">
        <ele>842.252197</ele>
        <time>2013-02-17T12:12:20Z</time>
      </trkpt>
      <trkpt lat="43.06333" lon="-0.45763">
        <ele>842.73291</ele>
        <time>2013-02-17T12:12:35Z</time>
      </trkpt>
      <trkpt lat="43.06332" lon="-0.45765">
        <ele>841.771484</ele>
        <time>2013-02-17T12:13:05Z</time>
      </trkpt>
    </trkseg>
  </trk>
</gpx>